PWSweather.com
Personal Weather Stations
Station Observations
DL5ARK
SonnebergDE

SonnebergDE

Lat: 50.34904861, Lon: 11.18112087

Elevation: 1214

Station Type: Selfmade

http://www.sumbarg.de

High Low Average
Temperature 81.2°F27.3°C 56.5°F13.6°C 69.1°F20.6°C
Dew Point 69.3°F20.7°C 59.1°F15.1°C 64.6°F18.1°C
Winds 10.0 mph 16.1 kmh Calm Calm 2.0 mph SW3.2 kmh SW
Wind Gusts 10.1 mph16.3 kmh -- 2.0 mph3.2 kmh
Humidity 87% 48% 66%
Pressure 30.07 in1018.3 mb 29.94 in1013.9 mb -
Precipitation 0.00 in0.0 mm - -
Hour Temp Dew Point Humidity Winds Wind Gusts Pressure Precip Precip Rate Daily Precip Total
12:01 AM 62.8°F17.1°C 64.0°F17.8°C 72% Calm Calm -- 29.97 in1014.9 mb 0.00 in0.0 mm 0.00 in0.0 mm 0.00 in0.0 mm
12:04 AM 62.9°F17.2°C 63.8°F17.7°C 73% Calm Calm -- 29.97 in1014.9 mb 0.00 in0.0 mm 0.00 in0.0 mm 0.00 in0.0 mm
12:10 AM 61.8°F16.6°C 63.5°F17.5°C 72% Calm Calm -- 29.97 in1014.9 mb 0.00 in0.0 mm 0.00 in0.0 mm 0.00 in0.0 mm
12:13 AM 61.9°F16.6°C 63.7°F17.6°C 73% Calm Calm -- 29.96 in1014.6 mb 0.00 in0.0 mm 0.00 in0.0 mm 0.00 in0.0 mm
12:16 AM 61.7°F16.5°C 63.2°F17.3°C 72% Calm Calm -- 29.97 in1014.9 mb 0.00 in0.0 mm 0.00 in0.0 mm 0.00 in0.0 mm
12:19 AM 61.9°F16.6°C 63.1°F17.3°C 73% Calm Calm -- 29.96 in1014.6 mb 0.00 in0.0 mm 0.00 in0.0 mm 0.00 in0.0 mm
12:25 AM 61.5°F16.4°C 63.3°F17.4°C 73% Calm Calm -- 29.96 in1014.6 mb 0.00 in0.0 mm 0.00 in0.0 mm 0.00 in0.0 mm
12:28 AM 61.8°F16.6°C 63.1°F17.3°C 73% Calm Calm -- 29.96 in1014.6 mb 0.00 in0.0 mm 0.00 in0.0 mm 0.00 in0.0 mm
12:34 AM 60.9°F16.1°C 62.8°F17.1°C 73% Calm Calm -- 29.95 in1014.2 mb 0.00 in0.0 mm 0.00 in0.0 mm 0.00 in0.0 mm
12:37 AM 61.0°F16.1°C 62.8°F17.1°C 73% Calm Calm -- 29.95 in1014.2 mb 0.00 in0.0 mm 0.00 in0.0 mm 0.00 in0.0 mm
12:40 AM 60.5°F15.8°C 62.5°F16.9°C 73% Calm Calm -- 29.96 in1014.6 mb 0.00 in0.0 mm 0.00 in0.0 mm 0.00 in0.0 mm
12:43 AM 60.5°F15.8°C 62.1°F16.7°C 72% Calm Calm -- 29.95 in1014.2 mb 0.00 in0.0 mm 0.00 in0.0 mm 0.00 in0.0 mm
12:46 AM 60.7°F15.9°C 62.1°F16.7°C 73% Calm Calm -- 29.95 in1014.2 mb 0.00 in0.0 mm 0.00 in0.0 mm 0.00 in0.0 mm
12:49 AM 60.9°F16.1°C 62.4°F16.9°C 73% Calm Calm -- 29.95 in1014.2 mb 0.00 in0.0 mm 0.00 in0.0 mm 0.00 in0.0 mm
12:52 AM 60.9°F16.1°C 62.1°F16.7°C 73% Calm Calm -- 29.95 in1014.2 mb 0.00 in0.0 mm 0.00 in0.0 mm 0.00 in0.0 mm
12:55 AM 60.5°F15.8°C 62.1°F16.7°C 73% Calm Calm -- 29.95 in1014.2 mb 0.00 in0.0 mm 0.00 in0.0 mm 0.00 in0.0 mm
12:58 AM 60.1°F15.6°C 62.1°F16.7°C 73% Calm Calm -- 29.94 in1013.9 mb 0.00 in0.0 mm 0.00 in0.0 mm 0.00 in0.0 mm
01:01 AM 59.9°F15.5°C 61.9°F16.6°C 73% Calm Calm -- 29.95 in1014.2 mb 0.00 in0.0 mm 0.00 in0.0 mm 0.00 in0.0 mm
01:04 AM 59.8°F15.4°C 61.5°F16.4°C 73% Calm Calm -- 29.95 in1014.2 mb 0.00 in0.0 mm 0.00 in0.0 mm 0.00 in0.0 mm
01:07 AM 59.5°F15.3°C 61.4°F16.3°C 73% Calm Calm -- 29.95 in1014.2 mb 0.00 in0.0 mm 0.00 in0.0 mm 0.00 in0.0 mm
01:10 AM 59.8°F15.4°C 61.7°F16.5°C 74% Calm Calm -- 29.95 in1014.2 mb 0.00 in0.0 mm 0.00 in0.0 mm 0.00 in0.0 mm
01:13 AM 59.6°F15.3°C 61.7°F16.5°C 74% Calm Calm -- 29.94 in1013.9 mb 0.00 in0.0 mm 0.00 in0.0 mm 0.00 in0.0 mm
01:19 AM 59.2°F15.1°C 61.5°F16.4°C 74% Calm Calm -- 29.94 in1013.9 mb 0.00 in0.0 mm 0.00 in0.0 mm 0.00 in0.0 mm
01:25 AM 60.6°F15.9°C 61.3°F16.3°C 74% Calm Calm -- 29.94 in1013.9 mb 0.00 in0.0 mm 0.00 in0.0 mm 0.00 in0.0 mm
01:31 AM 62.4°F16.9°C 62.7°F17.1°C 77% 3.6 mph NNW5.8 kmh NNW 3.7 mph6.0 kmh 29.94 in1013.9 mb 0.00 in0.0 mm 0.00 in0.0 mm 0.00 in0.0 mm
01:34 AM 63.5°F17.5°C 62.7°F17.1°C 78% 4.9 mph NE7.9 kmh NE 4.9 mph7.9 kmh 29.94 in1013.9 mb 0.00 in0.0 mm 0.00 in0.0 mm 0.00 in0.0 mm
01:37 AM 64.1°F17.8°C 62.9°F17.2°C 78% 4.8 mph NE7.7 kmh NE 4.9 mph7.9 kmh 29.94 in1013.9 mb 0.00 in0.0 mm 0.00 in0.0 mm 0.00 in0.0 mm
01:40 AM 64.3°F17.9°C 62.9°F17.2°C 78% 5.9 mph NE9.5 kmh NE 6.0 mph9.7 kmh 29.94 in1013.9 mb 0.00 in0.0 mm 0.00 in0.0 mm 0.00 in0.0 mm
01:43 AM 64.4°F18.0°C 62.8°F17.1°C 77% 1.2 mph NNE1.9 kmh NNE 1.2 mph1.9 kmh 29.94 in1013.9 mb 0.00 in0.0 mm 0.00 in0.0 mm 0.00 in0.0 mm
01:46 AM 63.6°F17.6°C 62.9°F17.2°C 77% Calm Calm -- 29.94 in1013.9 mb 0.00 in0.0 mm 0.00 in0.0 mm 0.00 in0.0 mm
01:52 AM 63.1°F17.3°C 62.7°F17.1°C 76% Calm Calm -- 29.95 in1014.2 mb 0.00 in0.0 mm 0.00 in0.0 mm 0.00 in0.0 mm
01:55 AM 62.8°F17.1°C 62.3°F16.8°C 75% Calm Calm -- 29.95 in1014.2 mb 0.00 in0.0 mm 0.00 in0.0 mm 0.00 in0.0 mm
01:58 AM 62.7°F17.1°C 62.4°F16.9°C 75% 0.8 mph SSW1.3 kmh SSW 0.8 mph1.3 kmh 29.95 in1014.2 mb 0.00 in0.0 mm 0.00 in0.0 mm 0.00 in0.0 mm
02:01 AM 62.9°F17.2°C 62.7°F17.1°C 76% 0.8 mph W1.3 kmh W 0.8 mph1.3 kmh 29.96 in1014.6 mb 0.00 in0.0 mm 0.00 in0.0 mm 0.00 in0.0 mm
02:04 AM 62.7°F17.1°C 62.5°F16.9°C 76% 4.0 mph WSW6.4 kmh WSW 4.0 mph6.4 kmh 29.96 in1014.6 mb 0.00 in0.0 mm 0.00 in0.0 mm 0.00 in0.0 mm
02:07 AM 62.7°F17.1°C 62.8°F17.1°C 76% 4.0 mph SW6.4 kmh SW 4.1 mph6.6 kmh 29.97 in1014.9 mb 0.00 in0.0 mm 0.00 in0.0 mm 0.00 in0.0 mm
02:10 AM 62.7°F17.1°C 62.8°F17.1°C 77% 2.4 mph NNW3.9 kmh NNW 2.4 mph3.9 kmh 29.97 in1014.9 mb 0.00 in0.0 mm 0.00 in0.0 mm 0.00 in0.0 mm
02:13 AM 62.7°F17.1°C 63.0°F17.2°C 77% 3.6 mph SW5.8 kmh SW 3.6 mph5.8 kmh 29.97 in1014.9 mb 0.00 in0.0 mm 0.00 in0.0 mm 0.00 in0.0 mm
02:16 AM 62.7°F17.1°C 62.8°F17.1°C 77% Calm Calm -- 29.97 in1014.9 mb 0.00 in0.0 mm 0.00 in0.0 mm 0.00 in0.0 mm
02:19 AM 62.7°F17.1°C 63.0°F17.2°C 77% Calm Calm -- 29.97 in1014.9 mb 0.00 in0.0 mm 0.00 in0.0 mm 0.00 in0.0 mm
02:22 AM 62.7°F17.1°C 62.7°F17.1°C 77% Calm Calm -- 29.98 in1015.2 mb 0.00 in0.0 mm 0.00 in0.0 mm 0.00 in0.0 mm
02:25 AM 62.4°F16.9°C 62.7°F17.1°C 77% 0.4 mph ENE0.6 kmh ENE 0.4 mph0.6 kmh 29.98 in1015.2 mb 0.00 in0.0 mm 0.00 in0.0 mm 0.00 in0.0 mm
02:28 AM 62.4°F16.9°C 62.9°F17.2°C 77% Calm Calm -- 29.99 in1015.6 mb 0.00 in0.0 mm 0.00 in0.0 mm 0.00 in0.0 mm
02:31 AM 62.3°F16.8°C 62.7°F17.1°C 77% Calm Calm -- 29.99 in1015.6 mb 0.00 in0.0 mm 0.00 in0.0 mm 0.00 in0.0 mm
02:34 AM 62.3°F16.8°C 62.6°F17.0°C 76% 1.2 mph 1.9 kmh 1.2 mph1.9 kmh 30.00 in1015.9 mb 0.00 in0.0 mm 0.00 in0.0 mm 0.00 in0.0 mm
02:37 AM 62.4°F16.9°C 62.7°F17.1°C 77% 0.8 mph NE1.3 kmh NE 0.8 mph1.3 kmh 30.00 in1015.9 mb 0.00 in0.0 mm 0.00 in0.0 mm 0.00 in0.0 mm
02:40 AM 62.2°F16.8°C 63.0°F17.2°C 77% Calm Calm -- 30.00 in1015.9 mb 0.00 in0.0 mm 0.00 in0.0 mm 0.00 in0.0 mm
02:46 AM 62.3°F16.8°C 62.7°F17.1°C 77% Calm Calm -- 30.00 in1015.9 mb 0.00 in0.0 mm 0.00 in0.0 mm 0.00 in0.0 mm
02:49 AM 62.3°F16.8°C 62.9°F17.2°C 77% Calm Calm -- 30.00 in1015.9 mb 0.00 in0.0 mm 0.00 in0.0 mm 0.00 in0.0 mm
02:52 AM 62.2°F16.8°C 62.9°F17.2°C 77% Calm Calm -- 30.01 in1016.3 mb 0.00 in0.0 mm 0.00 in0.0 mm 0.00 in0.0 mm
02:55 AM 62.0°F16.7°C 63.3°F17.4°C 78% Calm Calm -- 30.01 in1016.3 mb 0.00 in0.0 mm 0.00 in0.0 mm 0.00 in0.0 mm
02:58 AM 62.0°F16.7°C 63.3°F17.4°C 78% Calm Calm -- 30.01 in1016.3 mb 0.00 in0.0 mm 0.00 in0.0 mm 0.00 in0.0 mm
03:04 AM 62.5°F16.9°C 63.1°F17.3°C 78% Calm Calm -- 30.02 in1016.6 mb 0.00 in0.0 mm 0.00 in0.0 mm 0.00 in0.0 mm
03:07 AM 62.4°F16.9°C 63.2°F17.3°C 78% Calm Calm -- 30.01 in1016.3 mb 0.00 in0.0 mm 0.00 in0.0 mm 0.00 in0.0 mm
03:10 AM 62.3°F16.8°C 63.2°F17.3°C 79% Calm Calm -- 30.01 in1016.3 mb 0.00 in0.0 mm 0.00 in0.0 mm 0.00 in0.0 mm
03:13 AM 62.2°F16.8°C 63.1°F17.3°C 79% Calm Calm -- 30.01 in1016.3 mb 0.00 in0.0 mm 0.00 in0.0 mm 0.00 in0.0 mm
03:16 AM 62.0°F16.7°C 63.7°F17.6°C 80% 1.2 mph NNE1.9 kmh NNE 1.2 mph1.9 kmh 30.01 in1016.3 mb 0.00 in0.0 mm 0.00 in0.0 mm 0.00 in0.0 mm
03:19 AM 62.0°F16.7°C 63.7°F17.6°C 80% 0.8 mph NE1.3 kmh NE 0.8 mph1.3 kmh 30.00 in1015.9 mb 0.00 in0.0 mm 0.00 in0.0 mm 0.00 in0.0 mm
03:25 AM 62.0°F16.7°C 63.5°F17.5°C 80% 1.2 mph NNW1.9 kmh NNW 1.2 mph1.9 kmh 30.00 in1015.9 mb 0.00 in0.0 mm 0.00 in0.0 mm 0.00 in0.0 mm
03:31 AM 62.4°F16.9°C 63.5°F17.5°C 80% Calm Calm -- 30.00 in1015.9 mb 0.00 in0.0 mm 0.00 in0.0 mm 0.00 in0.0 mm
03:34 AM 62.4°F16.9°C 63.5°F17.5°C 80% Calm Calm -- 29.99 in1015.6 mb 0.00 in0.0 mm 0.00 in0.0 mm 0.00 in0.0 mm
03:37 AM 62.3°F16.8°C 63.5°F17.5°C 80% Calm Calm -- 29.99 in1015.6 mb 0.00 in0.0 mm 0.00 in0.0 mm 0.00 in0.0 mm
03:40 AM 62.2°F16.8°C 63.5°F17.5°C 80% Calm Calm -- 29.99 in1015.6 mb 0.00 in0.0 mm 0.00 in0.0 mm 0.00 in0.0 mm
03:43 AM 62.0°F16.7°C 63.6°F17.6°C 80% Calm Calm -- 30.00 in1015.9 mb 0.00 in0.0 mm 0.00 in0.0 mm 0.00 in0.0 mm
03:49 AM 62.0°F16.7°C 63.6°F17.6°C 80% Calm Calm -- 29.99 in1015.6 mb 0.00 in0.0 mm 0.00 in0.0 mm 0.00 in0.0 mm
03:52 AM 61.7°F16.5°C 63.5°F17.5°C 80% Calm Calm -- 29.99 in1015.6 mb 0.00 in0.0 mm 0.00 in0.0 mm 0.00 in0.0 mm
04:01 AM 61.3°F16.3°C 63.5°F17.5°C 81% Calm Calm -- 29.99 in1015.6 mb 0.00 in0.0 mm 0.00 in0.0 mm 0.00 in0.0 mm
04:04 AM 61.4°F16.3°C 63.8°F17.7°C 81% 2.0 mph ESE3.2 kmh ESE 2.0 mph3.2 kmh 29.99 in1015.6 mb 0.00 in0.0 mm 0.00 in0.0 mm 0.00 in0.0 mm
04:07 AM 61.4°F16.3°C 63.9°F17.7°C 82% 0.8 mph NNW1.3 kmh NNW 0.8 mph1.3 kmh 29.99 in1015.6 mb 0.00 in0.0 mm 0.00 in0.0 mm 0.00 in0.0 mm
04:10 AM 61.3°F16.3°C 63.6°F17.6°C 81% Calm Calm -- 29.99 in1015.6 mb 0.00 in0.0 mm 0.00 in0.0 mm 0.00 in0.0 mm
04:13 AM 61.6°F16.4°C 63.5°F17.5°C 81% Calm Calm -- 29.99 in1015.6 mb 0.00 in0.0 mm 0.00 in0.0 mm 0.00 in0.0 mm
04:16 AM 61.6°F16.4°C 63.7°F17.6°C 81% Calm Calm -- 29.99 in1015.6 mb 0.00 in0.0 mm 0.00 in0.0 mm 0.00 in0.0 mm
04:19 AM 61.5°F16.4°C 63.6°F17.6°C 81% Calm Calm -- 29.99 in1015.6 mb 0.00 in0.0 mm 0.00 in0.0 mm 0.00 in0.0 mm
04:22 AM 61.6°F16.4°C 63.6°F17.6°C 81% Calm Calm -- 29.99 in1015.6 mb 0.00 in0.0 mm 0.00 in0.0 mm 0.00 in0.0 mm
04:25 AM 61.5°F16.4°C 63.8°F17.7°C 81% Calm Calm -- 29.99 in1015.6 mb 0.00 in0.0 mm 0.00 in0.0 mm 0.00 in0.0 mm
04:28 AM 60.7°F15.9°C 63.5°F17.5°C 81% Calm Calm -- 29.99 in1015.6 mb 0.00 in0.0 mm 0.00 in0.0 mm 0.00 in0.0 mm
04:31 AM 61.0°F16.1°C 63.3°F17.4°C 81% Calm Calm -- 29.99 in1015.6 mb 0.00 in0.0 mm 0.00 in0.0 mm 0.00 in0.0 mm
04:34 AM 61.1°F16.2°C 63.5°F17.5°C 81% Calm Calm -- 29.99 in1015.6 mb 0.00 in0.0 mm 0.00 in0.0 mm 0.00 in0.0 mm
04:37 AM 61.1°F16.2°C 63.2°F17.3°C 81% Calm Calm -- 29.98 in1015.2 mb 0.00 in0.0 mm 0.00 in0.0 mm 0.00 in0.0 mm
04:40 AM 61.1°F16.2°C 63.5°F17.5°C 81% Calm Calm -- 29.99 in1015.6 mb 0.00 in0.0 mm 0.00 in0.0 mm 0.00 in0.0 mm
04:43 AM 61.1°F16.2°C 63.6°F17.6°C 82% Calm Calm -- 29.99 in1015.6 mb 0.00 in0.0 mm 0.00 in0.0 mm 0.00 in0.0 mm
04:46 AM 60.9°F16.1°C 63.0°F17.2°C 80% Calm Calm -- 29.99 in1015.6 mb 0.00 in0.0 mm 0.00 in0.0 mm 0.00 in0.0 mm
04:49 AM 60.9°F16.1°C 63.3°F17.4°C 81% Calm Calm -- 29.99 in1015.6 mb 0.00 in0.0 mm 0.00 in0.0 mm 0.00 in0.0 mm
04:52 AM 60.4°F15.8°C 63.3°F17.4°C 81% Calm Calm -- 29.99 in1015.6 mb 0.00 in0.0 mm 0.00 in0.0 mm 0.00 in0.0 mm
04:55 AM 60.6°F15.9°C 62.6°F17.0°C 80% Calm Calm -- 29.99 in1015.6 mb 0.00 in0.0 mm 0.00 in0.0 mm 0.00 in0.0 mm
04:58 AM 59.7°F15.4°C 62.8°F17.1°C 80% Calm Calm -- 29.99 in1015.6 mb 0.00 in0.0 mm 0.00 in0.0 mm 0.00 in0.0 mm
05:01 AM 60.4°F15.8°C 62.8°F17.1°C 80% Calm Calm -- 30.00 in1015.9 mb 0.00 in0.0 mm 0.00 in0.0 mm 0.00 in0.0 mm
05:04 AM 60.6°F15.9°C 62.8°F17.1°C 80% Calm Calm -- 30.00 in1015.9 mb 0.00 in0.0 mm 0.00 in0.0 mm 0.00 in0.0 mm
05:07 AM 59.9°F15.5°C 62.5°F16.9°C 81% Calm Calm -- 30.00 in1015.9 mb 0.00 in0.0 mm 0.00 in0.0 mm 0.00 in0.0 mm
05:10 AM 59.9°F15.5°C 62.6°F17.0°C 80% Calm Calm -- 30.00 in1015.9 mb 0.00 in0.0 mm 0.00 in0.0 mm 0.00 in0.0 mm
05:13 AM 60.0°F15.6°C 62.7°F17.1°C 81% Calm Calm -- 30.00 in1015.9 mb 0.00 in0.0 mm 0.00 in0.0 mm 0.00 in0.0 mm
05:16 AM 60.4°F15.8°C 62.7°F17.1°C 81% Calm Calm -- 30.00 in1015.9 mb 0.00 in0.0 mm 0.00 in0.0 mm 0.00 in0.0 mm
05:19 AM 60.1°F15.6°C 62.7°F17.1°C 81% Calm Calm -- 30.00 in1015.9 mb 0.00 in0.0 mm 0.00 in0.0 mm 0.00 in0.0 mm
05:22 AM 60.1°F15.6°C 62.8°F17.1°C 82% Calm Calm -- 30.00 in1015.9 mb 0.00 in0.0 mm 0.00 in0.0 mm 0.00 in0.0 mm
05:25 AM 60.0°F15.6°C 62.2°F16.8°C 81% Calm Calm -- 30.00 in1015.9 mb 0.00 in0.0 mm 0.00 in0.0 mm 0.00 in0.0 mm
05:28 AM 60.6°F15.9°C 62.7°F17.1°C 81% 0.4 mph WSW0.6 kmh WSW 0.4 mph0.6 kmh 30.00 in1015.9 mb 0.00 in0.0 mm 0.00 in0.0 mm 0.00 in0.0 mm
05:31 AM 60.7°F15.9°C 62.9°F17.2°C 82% Calm Calm -- 30.00 in1015.9 mb 0.00 in0.0 mm 0.00 in0.0 mm 0.00 in0.0 mm
05:34 AM 60.9°F16.1°C 63.0°F17.2°C 83% Calm Calm -- 30.00 in1015.9 mb 0.00 in0.0 mm 0.00 in0.0 mm 0.00 in0.0 mm
05:37 AM 60.8°F16.0°C 63.0°F17.2°C 83% Calm Calm -- 30.00 in1015.9 mb 0.00 in0.0 mm 0.00 in0.0 mm 0.00 in0.0 mm
05:40 AM 60.8°F16.0°C 63.0°F17.2°C 82% Calm Calm -- 30.00 in1015.9 mb 0.00 in0.0 mm 0.00 in0.0 mm 0.00 in0.0 mm
05:43 AM 60.5°F15.8°C 63.2°F17.3°C 83% Calm Calm -- 30.00 in1015.9 mb 0.00 in0.0 mm 0.00 in0.0 mm 0.00 in0.0 mm
05:46 AM 60.6°F15.9°C 63.1°F17.3°C 83% 0.8 mph ESE1.3 kmh ESE 0.8 mph1.3 kmh 30.00 in1015.9 mb 0.00 in0.0 mm 0.00 in0.0 mm 0.00 in0.0 mm
05:49 AM 60.7°F15.9°C 63.1°F17.3°C 83% Calm Calm -- 30.00 in1015.9 mb 0.00 in0.0 mm 0.00 in0.0 mm 0.00 in0.0 mm
05:52 AM 60.9°F16.1°C 63.5°F17.5°C 83% Calm Calm -- 30.00 in1015.9 mb 0.00 in0.0 mm 0.00 in0.0 mm 0.00 in0.0 mm
05:55 AM 61.1°F16.2°C 63.5°F17.5°C 83% Calm Calm -- 30.00 in1015.9 mb 0.00 in0.0 mm 0.00 in0.0 mm 0.00 in0.0 mm
05:58 AM 61.8°F16.6°C 63.7°F17.6°C 83% Calm Calm -- 30.00 in1015.9 mb 0.00 in0.0 mm 0.00 in0.0 mm 0.00 in0.0 mm
06:01 AM 62.3°F16.8°C 63.8°F17.7°C 84% 1.2 mph SE1.9 kmh SE 1.2 mph1.9 kmh 30.00 in1015.9 mb 0.00 in0.0 mm 0.00 in0.0 mm 0.00 in0.0 mm
06:04 AM 63.3°F17.4°C 64.6°F18.1°C 86% 1.2 mph NNW1.9 kmh NNW 1.2 mph1.9 kmh 30.00 in1015.9 mb 0.00 in0.0 mm 0.00 in0.0 mm 0.00 in0.0 mm
06:07 AM 63.4°F17.4°C 64.9°F18.3°C 86% 2.4 mph ESE3.9 kmh ESE 2.4 mph3.9 kmh 30.00 in1015.9 mb 0.00 in0.0 mm 0.00 in0.0 mm 0.00 in0.0 mm
06:10 AM 64.0°F17.8°C 65.6°F18.7°C 87% Calm Calm -- 30.00 in1015.9 mb 0.00 in0.0 mm 0.00 in0.0 mm 0.00 in0.0 mm
06:13 AM 64.5°F18.1°C 65.6°F18.7°C 87% 0.8 mph SE1.3 kmh SE 0.8 mph1.3 kmh 30.00 in1015.9 mb 0.00 in0.0 mm 0.00 in0.0 mm 0.00 in0.0 mm
06:16 AM 64.5°F18.1°C 65.2°F18.4°C 85% 2.0 mph SE3.2 kmh SE 2.0 mph3.2 kmh 30.00 in1015.9 mb 0.00 in0.0 mm 0.00 in0.0 mm 0.00 in0.0 mm
06:19 AM 64.9°F18.3°C 65.8°F18.8°C 87% 1.6 mph SE2.6 kmh SE 1.6 mph2.6 kmh 30.00 in1015.9 mb 0.00 in0.0 mm 0.00 in0.0 mm 0.00 in0.0 mm
06:22 AM 65.2°F18.4°C 65.7°F18.7°C 86% Calm Calm -- 30.01 in1016.3 mb 0.00 in0.0 mm 0.00 in0.0 mm 0.00 in0.0 mm
06:25 AM 65.5°F18.6°C 66.0°F18.9°C 86% Calm Calm -- 30.01 in1016.3 mb 0.00 in0.0 mm 0.00 in0.0 mm 0.00 in0.0 mm
06:28 AM 67.8°F19.9°C 66.7°F19.3°C 87% Calm Calm -- 30.01 in1016.3 mb 0.00 in0.0 mm 0.00 in0.0 mm 0.00 in0.0 mm
06:31 AM 68.5°F20.3°C 66.8°F19.3°C 85% 1.2 mph NNW1.9 kmh NNW 1.2 mph1.9 kmh 30.01 in1016.3 mb 0.00 in0.0 mm 0.00 in0.0 mm 0.00 in0.0 mm
06:37 AM 68.7°F20.4°C 67.0°F19.4°C 83% 0.4 mph SSE0.6 kmh SSE 0.4 mph0.6 kmh 30.01 in1016.3 mb 0.00 in0.0 mm 0.00 in0.0 mm 0.00 in0.0 mm
06:40 AM 68.0°F20.0°C 66.5°F19.2°C 81% 0.8 mph SSE1.3 kmh SSE 0.8 mph1.3 kmh 30.01 in1016.3 mb 0.00 in0.0 mm 0.00 in0.0 mm 0.00 in0.0 mm
06:43 AM 67.2°F19.6°C 66.5°F19.2°C 81% Calm Calm -- 30.02 in1016.6 mb 0.00 in0.0 mm 0.00 in0.0 mm 0.00 in0.0 mm
06:46 AM 66.4°F19.1°C 66.0°F18.9°C 80% Calm Calm -- 30.02 in1016.6 mb 0.00 in0.0 mm 0.00 in0.0 mm 0.00 in0.0 mm
06:49 AM 66.2°F19.0°C 66.0°F18.9°C 81% 1.6 mph SW2.6 kmh SW 1.6 mph2.6 kmh 30.02 in1016.6 mb 0.00 in0.0 mm 0.00 in0.0 mm 0.00 in0.0 mm
06:52 AM 66.0°F18.9°C 66.0°F18.9°C 80% Calm Calm -- 30.02 in1016.6 mb 0.00 in0.0 mm 0.00 in0.0 mm 0.00 in0.0 mm
06:55 AM 66.0°F18.9°C 65.9°F18.8°C 81% 1.2 mph NNW1.9 kmh NNW 1.2 mph1.9 kmh 30.03 in1016.9 mb 0.00 in0.0 mm 0.00 in0.0 mm 0.00 in0.0 mm
06:58 AM 65.6°F18.7°C 65.6°F18.7°C 80% 1.6 mph SW2.6 kmh SW 1.6 mph2.6 kmh 30.03 in1016.9 mb 0.00 in0.0 mm 0.00 in0.0 mm 0.00 in0.0 mm
07:01 AM 65.5°F18.6°C 65.7°F18.7°C 81% 0.8 mph S1.3 kmh S 0.8 mph1.3 kmh 30.03 in1016.9 mb 0.00 in0.0 mm 0.00 in0.0 mm 0.00 in0.0 mm
07:04 AM 65.6°F18.7°C 65.8°F18.8°C 81% 0.8 mph SW1.3 kmh SW 0.8 mph1.3 kmh 30.03 in1016.9 mb 0.00 in0.0 mm 0.00 in0.0 mm 0.00 in0.0 mm
07:07 AM 65.6°F18.7°C 65.8°F18.8°C 81% 2.0 mph SW3.2 kmh SW 2.0 mph3.2 kmh 30.03 in1016.9 mb 0.00 in0.0 mm 0.00 in0.0 mm 0.00 in0.0 mm
07:10 AM 66.0°F18.9°C 65.7°F18.7°C 81% 2.4 mph SSW3.9 kmh SSW 2.4 mph3.9 kmh 30.03 in1016.9 mb 0.00 in0.0 mm 0.00 in0.0 mm 0.00 in0.0 mm
07:16 AM 65.6°F18.7°C 65.9°F18.8°C 81% 1.6 mph S2.6 kmh S 1.6 mph2.6 kmh 30.03 in1016.9 mb 0.00 in0.0 mm 0.00 in0.0 mm 0.00 in0.0 mm
07:19 AM 65.8°F18.8°C 65.9°F18.8°C 81% 1.6 mph SSW2.6 kmh SSW 1.6 mph2.6 kmh 30.03 in1016.9 mb 0.00 in0.0 mm 0.00 in0.0 mm 0.00 in0.0 mm
07:22 AM 66.1°F18.9°C 65.8°F18.8°C 81% 1.6 mph SW2.6 kmh SW 1.6 mph2.6 kmh 30.03 in1016.9 mb 0.00 in0.0 mm 0.00 in0.0 mm 0.00 in0.0 mm
07:25 AM 66.1°F18.9°C 65.8°F18.8°C 81% 3.2 mph SW5.1 kmh SW 3.2 mph5.1 kmh 30.03 in1016.9 mb 0.00 in0.0 mm 0.00 in0.0 mm 0.00 in0.0 mm
07:28 AM 66.3°F19.1°C 65.9°F18.8°C 81% 1.6 mph SW2.6 kmh SW 1.6 mph2.6 kmh 30.03 in1016.9 mb 0.00 in0.0 mm 0.00 in0.0 mm 0.00 in0.0 mm
07:31 AM 66.3°F19.1°C 66.0°F18.9°C 81% 2.4 mph NNW3.9 kmh NNW 2.4 mph3.9 kmh 30.03 in1016.9 mb 0.00 in0.0 mm 0.00 in0.0 mm 0.00 in0.0 mm
07:34 AM 66.0°F18.9°C 65.9°F18.8°C 81% 1.6 mph S2.6 kmh S 1.6 mph2.6 kmh 30.04 in1017.3 mb 0.00 in0.0 mm 0.00 in0.0 mm 0.00 in0.0 mm
07:37 AM 65.9°F18.8°C 65.7°F18.7°C 80% Calm Calm -- 30.04 in1017.3 mb 0.00 in0.0 mm 0.00 in0.0 mm 0.00 in0.0 mm
07:40 AM 65.5°F18.6°C 65.5°F18.6°C 81% Calm Calm -- 30.04 in1017.3 mb 0.00 in0.0 mm 0.00 in0.0 mm 0.00 in0.0 mm
07:43 AM 65.4°F18.6°C 65.7°F18.7°C 80% 2.0 mph W3.2 kmh W 2.0 mph3.2 kmh 30.04 in1017.3 mb 0.00 in0.0 mm 0.00 in0.0 mm 0.00 in0.0 mm
07:46 AM 65.6°F18.7°C 65.6°F18.7°C 80% 1.6 mph SW2.6 kmh SW 1.6 mph2.6 kmh 30.04 in1017.3 mb 0.00 in0.0 mm 0.00 in0.0 mm 0.00 in0.0 mm
07:49 AM 65.9°F18.8°C 65.6°F18.7°C 81% 1.2 mph SW1.9 kmh SW 1.2 mph1.9 kmh 30.05 in1017.6 mb 0.00 in0.0 mm 0.00 in0.0 mm 0.00 in0.0 mm
07:52 AM 66.0°F18.9°C 65.8°F18.8°C 81% 0.4 mph NW0.6 kmh NW 0.4 mph0.6 kmh 30.05 in1017.6 mb 0.00 in0.0 mm 0.00 in0.0 mm 0.00 in0.0 mm
07:55 AM 66.2°F19.0°C 65.9°F18.8°C 80% 2.0 mph W3.2 kmh W 2.0 mph3.2 kmh 30.05 in1017.6 mb 0.00 in0.0 mm 0.00 in0.0 mm 0.00 in0.0 mm
07:58 AM 66.4°F19.1°C 65.9°F18.8°C 80% Calm Calm -- 30.05 in1017.6 mb 0.00 in0.0 mm 0.00 in0.0 mm 0.00 in0.0 mm
08:01 AM 66.8°F19.3°C 65.9°F18.8°C 79% 1.2 mph W1.9 kmh W 1.2 mph1.9 kmh 30.05 in1017.6 mb 0.00 in0.0 mm 0.00 in0.0 mm 0.00 in0.0 mm
08:04 AM 66.8°F19.3°C 65.5°F18.6°C 79% 2.0 mph NNW3.2 kmh NNW 2.0 mph3.2 kmh 30.05 in1017.6 mb 0.00 in0.0 mm 0.00 in0.0 mm 0.00 in0.0 mm
08:07 AM 67.0°F19.4°C 65.6°F18.7°C 79% 1.2 mph NW1.9 kmh NW 1.2 mph1.9 kmh 30.04 in1017.3 mb 0.00 in0.0 mm 0.00 in0.0 mm 0.00 in0.0 mm
08:10 AM 67.3°F19.6°C 65.6°F18.7°C 79% 0.8 mph W1.3 kmh W 0.8 mph1.3 kmh 30.05 in1017.6 mb 0.00 in0.0 mm 0.00 in0.0 mm 0.00 in0.0 mm
08:13 AM 66.5°F19.2°C 65.4°F18.6°C 78% 3.2 mph WSW5.1 kmh WSW 3.3 mph5.3 kmh 30.05 in1017.6 mb 0.00 in0.0 mm 0.00 in0.0 mm 0.00 in0.0 mm
08:16 AM 66.9°F19.4°C 65.0°F18.3°C 77% 4.0 mph SW6.4 kmh SW 4.1 mph6.6 kmh 30.05 in1017.6 mb 0.00 in0.0 mm 0.00 in0.0 mm 0.00 in0.0 mm
08:22 AM 68.6°F20.3°C 65.4°F18.6°C 77% 2.4 mph W3.9 kmh W 2.4 mph3.9 kmh 30.04 in1017.3 mb 0.00 in0.0 mm 0.00 in0.0 mm 0.00 in0.0 mm
08:25 AM 68.6°F20.3°C 65.7°F18.7°C 78% 2.8 mph W4.5 kmh W 2.8 mph4.5 kmh 30.05 in1017.6 mb 0.00 in0.0 mm 0.00 in0.0 mm 0.00 in0.0 mm
08:28 AM 68.7°F20.4°C 65.5°F18.6°C 77% 1.2 mph NW1.9 kmh NW 1.2 mph1.9 kmh 30.05 in1017.6 mb 0.00 in0.0 mm 0.00 in0.0 mm 0.00 in0.0 mm
08:31 AM 69.9°F21.1°C 65.5°F18.6°C 76% 1.6 mph WSW2.6 kmh WSW 1.6 mph2.6 kmh 30.05 in1017.6 mb 0.00 in0.0 mm 0.00 in0.0 mm 0.00 in0.0 mm
08:34 AM 69.2°F20.7°C 65.8°F18.8°C 77% 2.4 mph NW3.9 kmh NW 2.4 mph3.9 kmh 30.05 in1017.6 mb 0.00 in0.0 mm 0.00 in0.0 mm 0.00 in0.0 mm
08:37 AM 69.1°F20.6°C 65.7°F18.7°C 76% 3.2 mph W5.1 kmh W 3.3 mph5.3 kmh 30.05 in1017.6 mb 0.00 in0.0 mm 0.00 in0.0 mm 0.00 in0.0 mm
08:40 AM 68.9°F20.5°C 65.1°F18.4°C 74% 1.6 mph WNW2.6 kmh WNW 1.6 mph2.6 kmh 30.05 in1017.6 mb 0.00 in0.0 mm 0.00 in0.0 mm 0.00 in0.0 mm
08:46 AM 68.3°F20.2°C 65.3°F18.5°C 74% 0.4 mph NW0.6 kmh NW 0.4 mph0.6 kmh 30.04 in1017.3 mb 0.00 in0.0 mm 0.00 in0.0 mm 0.00 in0.0 mm
08:49 AM 69.2°F20.7°C 65.6°F18.7°C 75% 2.4 mph WNW3.9 kmh WNW 2.4 mph3.9 kmh 30.05 in1017.6 mb 0.00 in0.0 mm 0.00 in0.0 mm 0.00 in0.0 mm
08:52 AM 68.8°F20.4°C 65.7°F18.7°C 75% 1.2 mph NNW1.9 kmh NNW 1.2 mph1.9 kmh 30.04 in1017.3 mb 0.00 in0.0 mm 0.00 in0.0 mm 0.00 in0.0 mm
08:55 AM 68.2°F20.1°C 65.3°F18.5°C 74% 2.0 mph WNW3.2 kmh WNW 2.0 mph3.2 kmh 30.04 in1017.3 mb 0.00 in0.0 mm 0.00 in0.0 mm 0.00 in0.0 mm
08:58 AM 67.7°F19.8°C 65.3°F18.5°C 74% 3.2 mph WNW5.1 kmh WNW 3.3 mph5.3 kmh 30.04 in1017.3 mb 0.00 in0.0 mm 0.00 in0.0 mm 0.00 in0.0 mm
09:04 AM 69.0°F20.6°C 65.6°F18.7°C 75% 1.2 mph NNW1.9 kmh NNW 1.2 mph1.9 kmh 30.04 in1017.3 mb 0.00 in0.0 mm 0.00 in0.0 mm 0.00 in0.0 mm
09:07 AM 69.0°F20.6°C 65.9°F18.8°C 75% 4.0 mph W6.4 kmh W 4.1 mph6.6 kmh 30.04 in1017.3 mb 0.00 in0.0 mm 0.00 in0.0 mm 0.00 in0.0 mm
09:10 AM 69.1°F20.6°C 65.7°F18.7°C 74% 4.0 mph WNW6.4 kmh WNW 4.0 mph6.4 kmh 30.05 in1017.6 mb 0.00 in0.0 mm 0.00 in0.0 mm 0.00 in0.0 mm
09:13 AM 69.1°F20.6°C 65.6°F18.7°C 74% 2.8 mph NNW4.5 kmh NNW 2.9 mph4.7 kmh 30.04 in1017.3 mb 0.00 in0.0 mm 0.00 in0.0 mm 0.00 in0.0 mm
09:16 AM 69.2°F20.7°C 65.4°F18.6°C 73% 3.2 mph NNW5.1 kmh NNW 3.3 mph5.3 kmh 30.05 in1017.6 mb 0.00 in0.0 mm 0.00 in0.0 mm 0.00 in0.0 mm
09:19 AM 69.6°F20.9°C 65.7°F18.7°C 73% 3.6 mph NW5.8 kmh NW 3.6 mph5.8 kmh 30.05 in1017.6 mb 0.00 in0.0 mm 0.00 in0.0 mm 0.00 in0.0 mm
09:22 AM 69.4°F20.8°C 65.3°F18.5°C 73% 2.0 mph NW3.2 kmh NW 2.0 mph3.2 kmh 30.05 in1017.6 mb 0.00 in0.0 mm 0.00 in0.0 mm 0.00 in0.0 mm
09:25 AM 70.0°F21.1°C 65.6°F18.7°C 73% 4.0 mph NNW6.4 kmh NNW 4.0 mph6.4 kmh 30.04 in1017.3 mb 0.00 in0.0 mm 0.00 in0.0 mm 0.00 in0.0 mm
09:28 AM 70.0°F21.1°C 65.4°F18.6°C 72% 2.0 mph NNW3.2 kmh NNW 2.0 mph3.2 kmh 30.05 in1017.6 mb 0.00 in0.0 mm 0.00 in0.0 mm 0.00 in0.0 mm
09:31 AM 70.5°F21.4°C 65.8°F18.8°C 73% 2.4 mph W3.9 kmh W 2.4 mph3.9 kmh 30.05 in1017.6 mb 0.00 in0.0 mm 0.00 in0.0 mm 0.00 in0.0 mm
09:37 AM 70.6°F21.4°C 64.8°F18.2°C 70% 4.4 mph NW7.1 kmh NW 4.4 mph7.1 kmh 30.04 in1017.3 mb 0.00 in0.0 mm 0.00 in0.0 mm 0.00 in0.0 mm
09:40 AM 70.4°F21.3°C 65.2°F18.4°C 70% 6.0 mph NNW9.7 kmh NNW 6.0 mph9.7 kmh 30.05 in1017.6 mb 0.00 in0.0 mm 0.00 in0.0 mm 0.00 in0.0 mm
09:43 AM 71.4°F21.9°C 65.8°F18.8°C 71% 3.6 mph NW5.8 kmh NW 3.7 mph6.0 kmh 30.04 in1017.3 mb 0.00 in0.0 mm 0.00 in0.0 mm 0.00 in0.0 mm
09:46 AM 71.4°F21.9°C 65.9°F18.8°C 71% 4.4 mph WNW7.1 kmh WNW 4.5 mph7.2 kmh 30.05 in1017.6 mb 0.00 in0.0 mm 0.00 in0.0 mm 0.00 in0.0 mm
09:49 AM 72.4°F22.4°C 66.3°F19.1°C 71% 2.8 mph NW4.5 kmh NW 2.8 mph4.5 kmh 30.04 in1017.3 mb 0.00 in0.0 mm 0.00 in0.0 mm 0.00 in0.0 mm
09:52 AM 72.3°F22.4°C 66.6°F19.2°C 71% 1.6 mph WNW2.6 kmh WNW 1.6 mph2.6 kmh 30.05 in1017.6 mb 0.00 in0.0 mm 0.00 in0.0 mm 0.00 in0.0 mm
09:58 AM 74.3°F23.5°C 67.0°F19.4°C 70% 2.0 mph WNW3.2 kmh WNW 2.0 mph3.2 kmh 30.05 in1017.6 mb 0.00 in0.0 mm 0.00 in0.0 mm 0.00 in0.0 mm
10:01 AM 73.9°F23.3°C 66.9°F19.4°C 69% 2.8 mph NW4.5 kmh NW 2.9 mph4.7 kmh 30.04 in1017.3 mb 0.00 in0.0 mm 0.00 in0.0 mm 0.00 in0.0 mm
10:04 AM 74.3°F23.5°C 67.4°F19.7°C 69% 2.4 mph WSW3.9 kmh WSW 2.4 mph3.9 kmh 30.05 in1017.6 mb 0.00 in0.0 mm 0.00 in0.0 mm 0.00 in0.0 mm
10:07 AM 73.7°F23.2°C 67.2°F19.6°C 68% 4.9 mph NW7.9 kmh NW 4.9 mph7.9 kmh 30.04 in1017.3 mb 0.00 in0.0 mm 0.00 in0.0 mm 0.00 in0.0 mm
10:10 AM 73.7°F23.2°C 66.5°F19.2°C 66% 4.4 mph W7.1 kmh W 4.4 mph7.1 kmh 30.04 in1017.3 mb 0.00 in0.0 mm 0.00 in0.0 mm 0.00 in0.0 mm
10:13 AM 74.6°F23.7°C 66.9°F19.4°C 66% 2.4 mph NW3.9 kmh NW 2.4 mph3.9 kmh 30.04 in1017.3 mb 0.00 in0.0 mm 0.00 in0.0 mm 0.00 in0.0 mm
10:16 AM 75.1°F23.9°C 67.4°F19.7°C 67% 3.2 mph 5.1 kmh 3.3 mph5.3 kmh 30.04 in1017.3 mb 0.00 in0.0 mm 0.00 in0.0 mm 0.00 in0.0 mm
10:19 AM 74.5°F23.6°C 67.3°F19.6°C 65% 3.6 mph NW5.8 kmh NW 3.6 mph5.8 kmh 30.05 in1017.6 mb 0.00 in0.0 mm 0.00 in0.0 mm 0.00 in0.0 mm
10:22 AM 73.5°F23.1°C 67.5°F19.7°C 65% 4.0 mph WSW6.4 kmh WSW 4.1 mph6.6 kmh 30.04 in1017.3 mb 0.00 in0.0 mm 0.00 in0.0 mm 0.00 in0.0 mm
10:25 AM 74.2°F23.4°C 67.7°F19.8°C 66% 3.2 mph SW5.1 kmh SW 3.3 mph5.3 kmh 30.05 in1017.6 mb 0.00 in0.0 mm 0.00 in0.0 mm 0.00 in0.0 mm
10:28 AM 75.8°F24.3°C 68.3°F20.2°C 66% 3.2 mph WSW5.1 kmh WSW 3.2 mph5.1 kmh 30.04 in1017.3 mb 0.00 in0.0 mm 0.00 in0.0 mm 0.00 in0.0 mm
10:31 AM 75.3°F24.1°C 68.8°F20.4°C 67% 3.6 mph NW5.8 kmh NW 3.6 mph5.8 kmh 30.05 in1017.6 mb 0.00 in0.0 mm 0.00 in0.0 mm 0.00 in0.0 mm
10:34 AM 76.1°F24.5°C 68.1°F20.1°C 64% 2.8 mph NW4.5 kmh NW 2.8 mph4.5 kmh 30.05 in1017.6 mb 0.00 in0.0 mm 0.00 in0.0 mm 0.00 in0.0 mm
10:37 AM 74.6°F23.7°C 67.8°F19.9°C 64% 2.0 mph WNW3.2 kmh WNW 2.0 mph3.2 kmh 30.04 in1017.3 mb 0.00 in0.0 mm 0.00 in0.0 mm 0.00 in0.0 mm
10:40 AM 75.4°F24.1°C 67.7°F19.8°C 63% 2.4 mph NW3.9 kmh NW 2.4 mph3.9 kmh 30.04 in1017.3 mb 0.00 in0.0 mm 0.00 in0.0 mm 0.00 in0.0 mm
10:43 AM 77.8°F25.4°C 68.1°F20.1°C 63% 2.4 mph WNW3.9 kmh WNW 2.4 mph3.9 kmh 30.04 in1017.3 mb 0.00 in0.0 mm 0.00 in0.0 mm 0.00 in0.0 mm
10:46 AM 78.2°F25.7°C 67.4°F19.7°C 61% 4.0 mph W6.4 kmh W 4.1 mph6.6 kmh 30.04 in1017.3 mb 0.00 in0.0 mm 0.00 in0.0 mm 0.00 in0.0 mm
10:49 AM 77.6°F25.3°C 68.5°F20.3°C 61% 3.3 mph 5.3 kmh 3.3 mph5.3 kmh 30.04 in1017.3 mb 0.00 in0.0 mm 0.00 in0.0 mm 0.00 in0.0 mm
10:55 AM 75.3°F24.1°C 67.9°F19.9°C 59% 6.1 mph WSW9.8 kmh WSW 6.1 mph9.8 kmh 30.05 in1017.6 mb 0.00 in0.0 mm 0.00 in0.0 mm 0.00 in0.0 mm
10:58 AM 75.7°F24.3°C 67.3°F19.6°C 60% 2.8 mph WSW4.5 kmh WSW 2.9 mph4.7 kmh 30.05 in1017.6 mb 0.00 in0.0 mm 0.00 in0.0 mm 0.00 in0.0 mm
11:01 AM 75.4°F24.1°C 67.4°F19.7°C 60% 4.0 mph WSW6.4 kmh WSW 4.1 mph6.6 kmh 30.04 in1017.3 mb 0.00 in0.0 mm 0.00 in0.0 mm 0.00 in0.0 mm
11:07 AM 75.8°F24.3°C 67.3°F19.6°C 60% 5.7 mph SW9.2 kmh SW 5.7 mph9.2 kmh 30.04 in1017.3 mb 0.00 in0.0 mm 0.00 in0.0 mm 0.00 in0.0 mm
11:10 AM 77.7°F25.4°C 69.3°F20.7°C 63% 9.2 mph WSW14.8 kmh WSW 9.2 mph14.8 kmh 30.05 in1017.6 mb 0.00 in0.0 mm 0.00 in0.0 mm 0.00 in0.0 mm
11:13 AM 77.9°F25.5°C 69.3°F20.7°C 61% 4.4 mph W7.1 kmh W 4.4 mph7.1 kmh 30.04 in1017.3 mb 0.00 in0.0 mm 0.00 in0.0 mm 0.00 in0.0 mm
11:16 AM 78.5°F25.8°C 68.6°F20.3°C 59% 1.2 mph NW1.9 kmh NW 1.2 mph1.9 kmh 30.04 in1017.3 mb 0.00 in0.0 mm 0.00 in0.0 mm 0.00 in0.0 mm
11:19 AM 77.9°F25.5°C 68.3°F20.2°C 57% 4.0 mph NNW6.4 kmh NNW 4.1 mph6.6 kmh 30.04 in1017.3 mb 0.00 in0.0 mm 0.00 in0.0 mm 0.00 in0.0 mm
11:22 AM 75.9°F24.4°C 67.7°F19.8°C 56% 4.4 mph NNW7.1 kmh NNW 4.4 mph7.1 kmh 30.04 in1017.3 mb 0.00 in0.0 mm 0.00 in0.0 mm 0.00 in0.0 mm
11:25 AM 76.3°F24.6°C 67.6°F19.8°C 56% 4.8 mph W7.7 kmh W 4.8 mph7.7 kmh 30.04 in1017.3 mb 0.00 in0.0 mm 0.00 in0.0 mm 0.00 in0.0 mm
11:28 AM 77.3°F25.2°C 68.0°F20.0°C 58% 6.0 mph WSW9.7 kmh WSW 6.0 mph9.7 kmh 30.04 in1017.3 mb 0.00 in0.0 mm 0.00 in0.0 mm 0.00 in0.0 mm
11:31 AM 77.8°F25.4°C 67.9°F19.9°C 57% 2.4 mph SW3.9 kmh SW 2.4 mph3.9 kmh 30.04 in1017.3 mb 0.00 in0.0 mm 0.00 in0.0 mm 0.00 in0.0 mm
11:37 AM 76.3°F24.6°C 67.3°F19.6°C 55% 4.0 mph WSW6.4 kmh WSW 4.1 mph6.6 kmh 30.04 in1017.3 mb 0.00 in0.0 mm 0.00 in0.0 mm 0.00 in0.0 mm
11:40 AM 76.0°F24.4°C 66.7°F19.3°C 55% 1.6 mph WSW2.6 kmh WSW 1.6 mph2.6 kmh 30.03 in1016.9 mb 0.00 in0.0 mm 0.00 in0.0 mm 0.00 in0.0 mm
11:43 AM 75.4°F24.1°C 65.9°F18.8°C 54% 2.8 mph W4.5 kmh W 2.8 mph4.5 kmh 30.04 in1017.3 mb 0.00 in0.0 mm 0.00 in0.0 mm 0.00 in0.0 mm
11:52 AM 76.3°F24.6°C 66.9°F19.4°C 57% 5.9 mph WNW9.5 kmh WNW 6.0 mph9.7 kmh 30.04 in1017.3 mb 0.00 in0.0 mm 0.00 in0.0 mm 0.00 in0.0 mm
11:55 AM 76.3°F24.6°C 66.9°F19.4°C 56% 4.8 mph W7.7 kmh W 4.8 mph7.7 kmh 30.04 in1017.3 mb 0.00 in0.0 mm 0.00 in0.0 mm 0.00 in0.0 mm
11:58 AM 76.6°F24.8°C 67.6°F19.8°C 57% 2.0 mph 3.2 kmh 2.0 mph3.2 kmh 30.04 in1017.3 mb 0.00 in0.0 mm 0.00 in0.0 mm 0.00 in0.0 mm
12:01 PM 76.9°F24.9°C 67.5°F19.7°C 57% 3.6 mph W5.8 kmh W 3.7 mph6.0 kmh 30.04 in1017.3 mb 0.00 in0.0 mm 0.00 in0.0 mm 0.00 in0.0 mm
12:10 PM 77.7°F25.4°C 66.5°F19.2°C 56% 3.2 mph W5.1 kmh W 3.2 mph5.1 kmh 30.03 in1016.9 mb 0.00 in0.0 mm 0.00 in0.0 mm 0.00 in0.0 mm
12:13 PM 77.9°F25.5°C 67.2°F19.6°C 57% 6.9 mph W11.1 kmh W 6.9 mph11.1 kmh 30.04 in1017.3 mb 0.00 in0.0 mm 0.00 in0.0 mm 0.00 in0.0 mm
12:16 PM 78.1°F25.6°C 68.0°F20.0°C 57% 4.9 mph W7.9 kmh W 4.9 mph7.9 kmh 30.04 in1017.3 mb 0.00 in0.0 mm 0.00 in0.0 mm 0.00 in0.0 mm
12:19 PM 76.4°F24.7°C 67.6°F19.8°C 55% 6.4 mph WSW10.3 kmh WSW 6.4 mph10.3 kmh 30.03 in1016.9 mb 0.00 in0.0 mm 0.00 in0.0 mm 0.00 in0.0 mm
12:22 PM 78.5°F25.8°C 68.0°F20.0°C 57% 4.8 mph NNW7.7 kmh NNW 4.9 mph7.9 kmh 30.04 in1017.3 mb 0.00 in0.0 mm 0.00 in0.0 mm 0.00 in0.0 mm
12:25 PM 78.4°F25.8°C 66.8°F19.3°C 54% 6.4 mph NW10.3 kmh NW 6.4 mph10.3 kmh 30.04 in1017.3 mb 0.00 in0.0 mm 0.00 in0.0 mm 0.00 in0.0 mm
12:28 PM 77.5°F25.3°C 67.4°F19.7°C 55% 5.6 mph WNW9.0 kmh WNW 5.6 mph9.0 kmh 30.04 in1017.3 mb 0.00 in0.0 mm 0.00 in0.0 mm 0.00 in0.0 mm
12:31 PM 76.3°F24.6°C 66.8°F19.3°C 54% 4.9 mph NNW7.9 kmh NNW 4.9 mph7.9 kmh 30.04 in1017.3 mb 0.00 in0.0 mm 0.00 in0.0 mm 0.00 in0.0 mm
12:37 PM 77.2°F25.1°C 67.4°F19.7°C 55% 7.7 mph WSW12.4 kmh WSW 7.8 mph12.6 kmh 30.05 in1017.6 mb 0.00 in0.0 mm 0.00 in0.0 mm 0.00 in0.0 mm
12:40 PM 77.6°F25.3°C 67.9°F19.9°C 56% 4.8 mph W7.7 kmh W 4.8 mph7.7 kmh 30.05 in1017.6 mb 0.00 in0.0 mm 0.00 in0.0 mm 0.00 in0.0 mm
12:43 PM 77.6°F25.3°C 66.6°F19.2°C 54% 10.0 mph WSW16.1 kmh WSW 10.1 mph16.3 kmh 30.05 in1017.6 mb 0.00 in0.0 mm 0.00 in0.0 mm 0.00 in0.0 mm
12:46 PM 76.6°F24.8°C 66.1°F18.9°C 54% 4.0 mph NNW6.4 kmh NNW 4.0 mph6.4 kmh 30.05 in1017.6 mb 0.00 in0.0 mm 0.00 in0.0 mm 0.00 in0.0 mm
12:49 PM 78.2°F25.7°C 67.0°F19.4°C 55% 3.2 mph WSW5.1 kmh WSW 3.2 mph5.1 kmh 30.05 in1017.6 mb 0.00 in0.0 mm 0.00 in0.0 mm 0.00 in0.0 mm
12:52 PM 77.8°F25.4°C 66.6°F19.2°C 54% 4.1 mph WNW6.6 kmh WNW 4.1 mph6.6 kmh 30.05 in1017.6 mb 0.00 in0.0 mm 0.00 in0.0 mm 0.00 in0.0 mm
12:55 PM 76.6°F24.8°C 66.6°F19.2°C 53% 8.1 mph WSW13.0 kmh WSW 8.1 mph13.0 kmh 30.05 in1017.6 mb 0.00 in0.0 mm 0.00 in0.0 mm 0.00 in0.0 mm
12:58 PM 77.9°F25.5°C 65.7°F18.7°C 52% 6.1 mph W9.8 kmh W 6.1 mph9.8 kmh 30.05 in1017.6 mb 0.00 in0.0 mm 0.00 in0.0 mm 0.00 in0.0 mm
01:04 PM 76.7°F24.8°C 65.9°F18.8°C 52% 3.6 mph NW5.8 kmh NW 3.6 mph5.8 kmh 30.05 in1017.6 mb 0.00 in0.0 mm 0.00 in0.0 mm 0.00 in0.0 mm
01:10 PM 79.0°F26.1°C 66.7°F19.3°C 52% 4.0 mph NNW6.4 kmh NNW 4.0 mph6.4 kmh 30.05 in1017.6 mb 0.00 in0.0 mm 0.00 in0.0 mm 0.00 in0.0 mm
01:16 PM 77.2°F25.1°C 66.7°F19.3°C 52% 2.4 mph NW3.9 kmh NW 2.4 mph3.9 kmh 30.05 in1017.6 mb 0.00 in0.0 mm 0.00 in0.0 mm 0.00 in0.0 mm
01:19 PM 79.0°F26.1°C 67.9°F19.9°C 52% 7.3 mph NW11.7 kmh NW 7.3 mph11.7 kmh 30.05 in1017.6 mb 0.00 in0.0 mm 0.00 in0.0 mm 0.00 in0.0 mm
01:22 PM 79.8°F26.6°C 68.6°F20.3°C 53% 4.5 mph W7.2 kmh W 4.5 mph7.2 kmh 30.05 in1017.6 mb 0.00 in0.0 mm 0.00 in0.0 mm 0.00 in0.0 mm
01:25 PM 77.1°F25.1°C 67.1°F19.5°C 50% 8.1 mph WNW13.0 kmh WNW 8.1 mph13.0 kmh 30.05 in1017.6 mb 0.00 in0.0 mm 0.00 in0.0 mm 0.00 in0.0 mm
01:28 PM 75.9°F24.4°C 67.0°F19.4°C 51% 1.6 mph WNW2.6 kmh WNW 1.6 mph2.6 kmh 30.05 in1017.6 mb 0.00 in0.0 mm 0.00 in0.0 mm 0.00 in0.0 mm
01:31 PM 74.9°F23.8°C 67.0°F19.4°C 52% 4.8 mph W7.7 kmh W 4.8 mph7.7 kmh 30.05 in1017.6 mb 0.00 in0.0 mm 0.00 in0.0 mm 0.00 in0.0 mm
01:34 PM 76.4°F24.7°C 66.5°F19.2°C 52% 2.8 mph NW4.5 kmh NW 2.8 mph4.5 kmh 30.05 in1017.6 mb 0.00 in0.0 mm 0.00 in0.0 mm 0.00 in0.0 mm
01:37 PM 76.9°F24.9°C 67.1°F19.5°C 53% 7.3 mph WNW11.7 kmh WNW 7.3 mph11.7 kmh 30.05 in1017.6 mb 0.00 in0.0 mm 0.00 in0.0 mm 0.00 in0.0 mm
01:40 PM 77.9°F25.5°C 65.6°F18.7°C 51% 5.2 mph NNW8.4 kmh NNW 5.2 mph8.4 kmh 30.05 in1017.6 mb 0.00 in0.0 mm 0.00 in0.0 mm 0.00 in0.0 mm
01:43 PM 76.9°F24.9°C 66.8°F19.3°C 52% 4.0 mph WNW6.4 kmh WNW 4.0 mph6.4 kmh 30.05 in1017.6 mb 0.00 in0.0 mm 0.00 in0.0 mm 0.00 in0.0 mm
01:46 PM 74.5°F23.6°C 65.5°F18.6°C 51% 8.1 mph WSW13.0 kmh WSW 8.1 mph13.0 kmh 30.05 in1017.6 mb 0.00 in0.0 mm 0.00 in0.0 mm 0.00 in0.0 mm
01:49 PM 75.7°F24.3°C 65.8°F18.8°C 51% 6.1 mph WSW9.8 kmh WSW 6.1 mph9.8 kmh 30.05 in1017.6 mb 0.00 in0.0 mm 0.00 in0.0 mm 0.00 in0.0 mm
01:52 PM 76.6°F24.8°C 65.8°F18.8°C 53% 3.6 mph NNW5.8 kmh NNW 3.7 mph6.0 kmh 30.04 in1017.3 mb 0.00 in0.0 mm 0.00 in0.0 mm 0.00 in0.0 mm
01:55 PM 77.0°F25.0°C 65.9°F18.8°C 52% 6.5 mph NNW10.5 kmh NNW 6.5 mph10.5 kmh 30.04 in1017.3 mb 0.00 in0.0 mm 0.00 in0.0 mm 0.00 in0.0 mm
01:58 PM 77.5°F25.3°C 66.0°F18.9°C 52% 4.8 mph W7.7 kmh W 4.8 mph7.7 kmh 30.04 in1017.3 mb 0.00 in0.0 mm 0.00 in0.0 mm 0.00 in0.0 mm
02:04 PM 77.7°F25.4°C 67.2°F19.6°C 53% 5.2 mph WNW8.4 kmh WNW 5.3 mph8.5 kmh 30.03 in1016.9 mb 0.00 in0.0 mm 0.00 in0.0 mm 0.00 in0.0 mm
02:07 PM 77.9°F25.5°C 66.0°F18.9°C 51% 2.8 mph NW4.5 kmh NW 2.8 mph4.5 kmh 30.03 in1016.9 mb 0.00 in0.0 mm 0.00 in0.0 mm 0.00 in0.0 mm
02:10 PM 76.9°F24.9°C 66.5°F19.2°C 51% 3.2 mph NW5.1 kmh NW 3.2 mph5.1 kmh 30.03 in1016.9 mb 0.00 in0.0 mm 0.00 in0.0 mm 0.00 in0.0 mm
02:13 PM 77.2°F25.1°C 67.3°F19.6°C 52% 2.0 mph SSW3.2 kmh SSW 2.0 mph3.2 kmh 30.03 in1016.9 mb 0.00 in0.0 mm 0.00 in0.0 mm 0.00 in0.0 mm
02:16 PM 76.9°F24.9°C 65.7°F18.7°C 51% 5.6 mph NW9.0 kmh NW 5.6 mph9.0 kmh 30.03 in1016.9 mb 0.00 in0.0 mm 0.00 in0.0 mm 0.00 in0.0 mm
02:19 PM 76.6°F24.8°C 66.9°F19.4°C 52% 6.1 mph NNW9.8 kmh NNW 6.1 mph9.8 kmh 30.03 in1016.9 mb 0.00 in0.0 mm 0.00 in0.0 mm 0.00 in0.0 mm
02:22 PM 77.2°F25.1°C 66.5°F19.2°C 52% 1.2 mph NW1.9 kmh NW 1.2 mph1.9 kmh 30.03 in1016.9 mb 0.00 in0.0 mm 0.00 in0.0 mm 0.00 in0.0 mm
02:25 PM 76.1°F24.5°C 66.0°F18.9°C 52% 3.2 mph SW5.1 kmh SW 3.3 mph5.3 kmh 30.03 in1016.9 mb 0.00 in0.0 mm 0.00 in0.0 mm 0.00 in0.0 mm
02:28 PM 77.6°F25.3°C 66.5°F19.2°C 52% 3.6 mph SW5.8 kmh SW 3.6 mph5.8 kmh 30.03 in1016.9 mb 0.00 in0.0 mm 0.00 in0.0 mm 0.00 in0.0 mm
02:31 PM 79.3°F26.3°C 67.1°F19.5°C 52% 4.9 mph S7.9 kmh S 4.9 mph7.9 kmh 30.03 in1016.9 mb 0.00 in0.0 mm 0.00 in0.0 mm 0.00 in0.0 mm
02:34 PM 77.7°F25.4°C 65.7°F18.7°C 49% 5.3 mph W8.5 kmh W 5.3 mph8.5 kmh 30.03 in1016.9 mb 0.00 in0.0 mm 0.00 in0.0 mm 0.00 in0.0 mm
02:37 PM 78.1°F25.6°C 66.3°F19.1°C 50% 7.2 mph W11.6 kmh W 7.2 mph11.6 kmh 30.03 in1016.9 mb 0.00 in0.0 mm 0.00 in0.0 mm 0.00 in0.0 mm
02:40 PM 78.5°F25.8°C 65.6°F18.7°C 50% 2.0 mph NNW3.2 kmh NNW 2.0 mph3.2 kmh 30.03 in1016.9 mb 0.00 in0.0 mm 0.00 in0.0 mm 0.00 in0.0 mm
02:43 PM 77.5°F25.3°C 65.1°F18.4°C 50% 4.4 mph NNW7.1 kmh NNW 4.4 mph7.1 kmh 30.03 in1016.9 mb 0.00 in0.0 mm 0.00 in0.0 mm 0.00 in0.0 mm
02:46 PM 77.0°F25.0°C 65.2°F18.4°C 50% 5.6 mph WSW9.0 kmh WSW 5.6 mph9.0 kmh 30.03 in1016.9 mb 0.00 in0.0 mm 0.00 in0.0 mm 0.00 in0.0 mm
02:49 PM 79.1°F26.2°C 66.6°F19.2°C 52% 4.4 mph WNW7.1 kmh WNW 4.5 mph7.2 kmh 30.03 in1016.9 mb 0.00 in0.0 mm 0.00 in0.0 mm 0.00 in0.0 mm
02:52 PM 81.2°F27.3°C 66.6°F19.2°C 50% 4.0 mph NW6.4 kmh NW 4.1 mph6.6 kmh 30.03 in1016.9 mb 0.00 in0.0 mm 0.00 in0.0 mm 0.00 in0.0 mm
02:58 PM 77.9°F25.5°C 66.4°F19.1°C 48% 4.4 mph WSW7.1 kmh WSW 4.5 mph7.2 kmh 30.03 in1016.9 mb 0.00 in0.0 mm 0.00 in0.0 mm 0.00 in0.0 mm
03:01 PM 77.9°F25.5°C 65.4°F18.6°C 48% 6.4 mph SW10.3 kmh SW 6.4 mph10.3 kmh 30.03 in1016.9 mb 0.00 in0.0 mm 0.00 in0.0 mm 0.00 in0.0 mm
03:04 PM 76.6°F24.8°C 65.6°F18.7°C 49% 6.1 mph WSW9.8 kmh WSW 6.1 mph9.8 kmh 30.03 in1016.9 mb 0.00 in0.0 mm 0.00 in0.0 mm 0.00 in0.0 mm
03:10 PM 76.7°F24.8°C 65.7°F18.7°C 51% 7.3 mph WNW11.7 kmh WNW 7.3 mph11.7 kmh 30.03 in1016.9 mb 0.00 in0.0 mm 0.00 in0.0 mm 0.00 in0.0 mm
03:13 PM 75.4°F24.1°C 66.4°F19.1°C 52% 2.8 mph NW4.5 kmh NW 2.9 mph4.7 kmh 30.03 in1016.9 mb 0.00 in0.0 mm 0.00 in0.0 mm 0.00 in0.0 mm
03:16 PM 75.8°F24.3°C 65.0°F18.3°C 50% 4.5 mph 7.2 kmh 4.5 mph7.2 kmh 30.03 in1016.9 mb 0.00 in0.0 mm 0.00 in0.0 mm 0.00 in0.0 mm
03:19 PM 74.5°F23.6°C 66.4°F19.1°C 52% 4.4 mph NNW7.1 kmh NNW 4.4 mph7.1 kmh 30.03 in1016.9 mb 0.00 in0.0 mm 0.00 in0.0 mm 0.00 in0.0 mm
03:22 PM 76.0°F24.4°C 65.5°F18.6°C 52% 6.8 mph NW10.9 kmh NW 6.8 mph10.9 kmh 30.03 in1016.9 mb 0.00 in0.0 mm 0.00 in0.0 mm 0.00 in0.0 mm
03:25 PM 76.8°F24.9°C 64.7°F18.2°C 51% 1.2 mph NW1.9 kmh NW 1.2 mph1.9 kmh 30.03 in1016.9 mb 0.00 in0.0 mm 0.00 in0.0 mm 0.00 in0.0 mm
03:28 PM 76.7°F24.8°C 65.8°F18.8°C 53% 5.7 mph NW9.2 kmh NW 5.7 mph9.2 kmh 30.03 in1016.9 mb 0.00 in0.0 mm 0.00 in0.0 mm 0.00 in0.0 mm
03:31 PM 75.8°F24.3°C 64.6°F18.1°C 51% 2.8 mph WSW4.5 kmh WSW 2.8 mph4.5 kmh 30.03 in1016.9 mb 0.00 in0.0 mm 0.00 in0.0 mm 0.00 in0.0 mm
03:34 PM 75.5°F24.2°C 65.2°F18.4°C 52% 3.8 mph 6.1 kmh 3.8 mph6.1 kmh 30.03 in1016.9 mb 0.00 in0.0 mm 0.00 in0.0 mm 0.00 in0.0 mm
03:37 PM 75.7°F24.3°C 64.5°F18.1°C 52% 2.8 mph W4.5 kmh W 2.9 mph4.7 kmh 30.03 in1016.9 mb 0.00 in0.0 mm 0.00 in0.0 mm 0.00 in0.0 mm
03:40 PM 76.4°F24.7°C 66.2°F19.0°C 53% 4.8 mph WSW7.7 kmh WSW 4.8 mph7.7 kmh 30.03 in1016.9 mb 0.00 in0.0 mm 0.00 in0.0 mm 0.00 in0.0 mm
03:46 PM 76.9°F24.9°C 66.2°F19.0°C 53% 2.0 mph NNW3.2 kmh NNW 2.0 mph3.2 kmh 30.03 in1016.9 mb 0.00 in0.0 mm 0.00 in0.0 mm 0.00 in0.0 mm
03:49 PM 77.2°F25.1°C 65.7°F18.7°C 53% 2.0 mph NNW3.2 kmh NNW 2.0 mph3.2 kmh 30.03 in1016.9 mb 0.00 in0.0 mm 0.00 in0.0 mm 0.00 in0.0 mm
03:52 PM 76.0°F24.4°C 65.3°F18.5°C 52% 7.3 mph 11.7 kmh 7.3 mph11.7 kmh 30.03 in1016.9 mb 0.00 in0.0 mm 0.00 in0.0 mm 0.00 in0.0 mm
03:55 PM 75.5°F24.2°C 64.4°F18.0°C 52% 3.6 mph NW5.8 kmh NW 3.6 mph5.8 kmh 30.03 in1016.9 mb 0.00 in0.0 mm 0.00 in0.0 mm 0.00 in0.0 mm
03:58 PM 76.1°F24.5°C 64.7°F18.2°C 53% 8.5 mph NNW13.7 kmh NNW 8.5 mph13.7 kmh 30.03 in1016.9 mb 0.00 in0.0 mm 0.00 in0.0 mm 0.00 in0.0 mm
04:01 PM 76.2°F24.6°C 64.2°F17.9°C 52% 6.9 mph NW11.1 kmh NW 6.9 mph11.1 kmh 30.02 in1016.6 mb 0.00 in0.0 mm 0.00 in0.0 mm 0.00 in0.0 mm
04:04 PM 76.3°F24.6°C 65.5°F18.6°C 53% 6.4 mph NNW10.3 kmh NNW 6.4 mph10.3 kmh 30.02 in1016.6 mb 0.00 in0.0 mm 0.00 in0.0 mm 0.00 in0.0 mm
04:07 PM 75.9°F24.4°C 65.0°F18.3°C 52% 7.7 mph W12.4 kmh W 7.8 mph12.6 kmh 30.02 in1016.6 mb 0.00 in0.0 mm 0.00 in0.0 mm 0.00 in0.0 mm
04:10 PM 76.0°F24.4°C 64.4°F18.0°C 51% 2.8 mph W4.5 kmh W 2.9 mph4.7 kmh 30.02 in1016.6 mb 0.00 in0.0 mm 0.00 in0.0 mm 0.00 in0.0 mm
04:13 PM 76.1°F24.5°C 63.8°F17.7°C 51% 4.8 mph NW7.7 kmh NW 4.8 mph7.7 kmh 30.01 in1016.3 mb 0.00 in0.0 mm 0.00 in0.0 mm 0.00 in0.0 mm
04:16 PM 76.6°F24.8°C 63.1°F17.3°C 50% 4.0 mph WNW6.4 kmh WNW 4.0 mph6.4 kmh 30.01 in1016.3 mb 0.00 in0.0 mm 0.00 in0.0 mm 0.00 in0.0 mm
04:19 PM 76.4°F24.7°C 63.9°F17.7°C 51% 1.6 mph NNW2.6 kmh NNW 1.6 mph2.6 kmh 30.02 in1016.6 mb 0.00 in0.0 mm 0.00 in0.0 mm 0.00 in0.0 mm
04:22 PM 76.0°F24.4°C 63.7°F17.6°C 51% 6.8 mph NW10.9 kmh NW 6.8 mph10.9 kmh 30.01 in1016.3 mb 0.00 in0.0 mm 0.00 in0.0 mm 0.00 in0.0 mm
04:25 PM 76.6°F24.8°C 64.4°F18.0°C 51% 6.1 mph NW9.8 kmh NW 6.1 mph9.8 kmh 30.02 in1016.6 mb 0.00 in0.0 mm 0.00 in0.0 mm 0.00 in0.0 mm
04:28 PM 77.2°F25.1°C 64.4°F18.0°C 51% 5.2 mph W8.4 kmh W 5.2 mph8.4 kmh 30.02 in1016.6 mb 0.00 in0.0 mm 0.00 in0.0 mm 0.00 in0.0 mm
04:31 PM 77.5°F25.3°C 65.3°F18.5°C 52% 2.4 mph WSW3.9 kmh WSW 2.4 mph3.9 kmh 30.02 in1016.6 mb 0.00 in0.0 mm 0.00 in0.0 mm 0.00 in0.0 mm
04:34 PM 78.5°F25.8°C 64.7°F18.2°C 52% 3.6 mph W5.8 kmh W 3.6 mph5.8 kmh 30.02 in1016.6 mb 0.00 in0.0 mm 0.00 in0.0 mm 0.00 in0.0 mm
04:37 PM 79.0°F26.1°C 64.9°F18.3°C 51% 4.0 mph W6.4 kmh W 4.1 mph6.6 kmh 30.02 in1016.6 mb 0.00 in0.0 mm 0.00 in0.0 mm 0.00 in0.0 mm
04:40 PM 79.8°F26.6°C 65.0°F18.3°C 51% 2.0 mph NNW3.2 kmh NNW 2.0 mph3.2 kmh 30.02 in1016.6 mb 0.00 in0.0 mm 0.00 in0.0 mm 0.00 in0.0 mm
04:49 PM 80.2°F26.8°C 65.3°F18.5°C 51% 2.0 mph NNW3.2 kmh NNW 2.0 mph3.2 kmh 30.02 in1016.6 mb 0.00 in0.0 mm 0.00 in0.0 mm 0.00 in0.0 mm
04:52 PM 79.5°F26.4°C 64.6°F18.1°C 51% 5.6 mph SW9.0 kmh SW 5.6 mph9.0 kmh 30.02 in1016.6 mb 0.00 in0.0 mm 0.00 in0.0 mm 0.00 in0.0 mm
04:55 PM 78.9°F26.1°C 65.0°F18.3°C 50% 1.6 mph NNW2.6 kmh NNW 1.6 mph2.6 kmh 30.02 in1016.6 mb 0.00 in0.0 mm 0.00 in0.0 mm 0.00 in0.0 mm
04:58 PM 79.4°F26.3°C 65.5°F18.6°C 51% 6.7 mph NNW10.8 kmh NNW 6.8 mph10.9 kmh 30.02 in1016.6 mb 0.00 in0.0 mm 0.00 in0.0 mm 0.00 in0.0 mm
05:04 PM 78.7°F25.9°C 63.6°F17.6°C 50% 3.6 mph W5.8 kmh W 3.6 mph5.8 kmh 30.03 in1016.9 mb 0.00 in0.0 mm 0.00 in0.0 mm 0.00 in0.0 mm
05:10 PM 80.3°F26.8°C 64.8°F18.2°C 50% 2.0 mph NNW3.2 kmh NNW 2.0 mph3.2 kmh 30.02 in1016.6 mb 0.00 in0.0 mm 0.00 in0.0 mm 0.00 in0.0 mm
05:13 PM 80.9°F27.2°C 65.4°F18.6°C 51% 2.8 mph W4.5 kmh W 2.8 mph4.5 kmh 30.03 in1016.9 mb 0.00 in0.0 mm 0.00 in0.0 mm 0.00 in0.0 mm
05:16 PM 79.4°F26.3°C 65.3°F18.5°C 51% 4.1 mph W6.6 kmh W 4.1 mph6.6 kmh 30.03 in1016.9 mb 0.00 in0.0 mm 0.00 in0.0 mm 0.00 in0.0 mm
05:19 PM 78.9°F26.1°C 64.7°F18.2°C 50% 3.6 mph WSW5.8 kmh WSW 3.7 mph6.0 kmh 30.03 in1016.9 mb 0.00 in0.0 mm 0.00 in0.0 mm 0.00 in0.0 mm
05:22 PM 77.9°F25.5°C 64.0°F17.8°C 50% 3.6 mph SW5.8 kmh SW 3.6 mph5.8 kmh 30.03 in1016.9 mb 0.00 in0.0 mm 0.00 in0.0 mm 0.00 in0.0 mm
05:25 PM 78.0°F25.6°C 65.2°F18.4°C 51% 2.8 mph WNW4.5 kmh WNW 2.9 mph4.7 kmh 30.03 in1016.9 mb 0.00 in0.0 mm 0.00 in0.0 mm 0.00 in0.0 mm
05:28 PM 78.9°F26.1°C 64.9°F18.3°C 52% 2.4 mph NNW3.9 kmh NNW 2.4 mph3.9 kmh 30.03 in1016.9 mb 0.00 in0.0 mm 0.00 in0.0 mm 0.00 in0.0 mm
05:34 PM 77.6°F25.3°C 64.6°F18.1°C 50% 3.6 mph W5.8 kmh W 3.6 mph5.8 kmh 30.03 in1016.9 mb 0.00 in0.0 mm 0.00 in0.0 mm 0.00 in0.0 mm
05:37 PM 78.2°F25.7°C 64.1°F17.8°C 51% 2.4 mph SW3.9 kmh SW 2.5 mph4.0 kmh 30.03 in1016.9 mb 0.00 in0.0 mm 0.00 in0.0 mm 0.00 in0.0 mm
05:40 PM 79.8°F26.6°C 65.3°F18.5°C 51% 1.6 mph W2.6 kmh W 1.6 mph2.6 kmh 30.03 in1016.9 mb 0.00 in0.0 mm 0.00 in0.0 mm 0.00 in0.0 mm
05:43 PM 79.0°F26.1°C 64.1°F17.8°C 50% 2.8 mph W4.5 kmh W 2.9 mph4.7 kmh 30.03 in1016.9 mb 0.00 in0.0 mm 0.00 in0.0 mm 0.00 in0.0 mm
05:46 PM 77.9°F25.5°C 64.6°F18.1°C 51% 4.8 mph NNW7.7 kmh NNW 4.9 mph7.9 kmh 30.03 in1016.9 mb 0.00 in0.0 mm 0.00 in0.0 mm 0.00 in0.0 mm
05:49 PM 78.1°F25.6°C 64.9°F18.3°C 51% 4.4 mph NNW7.1 kmh NNW 4.5 mph7.2 kmh 30.03 in1016.9 mb 0.00 in0.0 mm 0.00 in0.0 mm 0.00 in0.0 mm
05:52 PM 78.4°F25.8°C 65.0°F18.3°C 51% 3.5 mph SW5.6 kmh SW 3.6 mph5.8 kmh 30.03 in1016.9 mb 0.00 in0.0 mm 0.00 in0.0 mm 0.00 in0.0 mm
05:55 PM 77.8°F25.4°C 64.7°F18.2°C 51% 4.0 mph W6.4 kmh W 4.1 mph6.6 kmh 30.03 in1016.9 mb 0.00 in0.0 mm 0.00 in0.0 mm 0.00 in0.0 mm
05:58 PM 77.5°F25.3°C 65.3°F18.5°C 52% 1.6 mph NW2.6 kmh NW 1.6 mph2.6 kmh 30.03 in1016.9 mb 0.00 in0.0 mm 0.00 in0.0 mm 0.00 in0.0 mm
06:01 PM 76.7°F24.8°C 64.5°F18.1°C 52% Calm Calm -- 30.03 in1016.9 mb 0.00 in0.0 mm 0.00 in0.0 mm 0.00 in0.0 mm
06:04 PM 77.2°F25.1°C 65.5°F18.6°C 53% 2.8 mph W4.5 kmh W 2.8 mph4.5 kmh 30.03 in1016.9 mb 0.00 in0.0 mm 0.00 in0.0 mm 0.00 in0.0 mm
06:07 PM 76.7°F24.8°C 65.4°F18.6°C 52% 4.3 mph NW6.9 kmh NW 4.3 mph6.9 kmh 30.03 in1016.9 mb 0.00 in0.0 mm 0.00 in0.0 mm 0.00 in0.0 mm
06:10 PM 78.0°F25.6°C 65.6°F18.7°C 53% 2.8 mph W4.5 kmh W 2.9 mph4.7 kmh 30.03 in1016.9 mb 0.00 in0.0 mm 0.00 in0.0 mm 0.00 in0.0 mm
06:16 PM 78.2°F25.7°C 64.8°F18.2°C 52% 1.6 mph W2.6 kmh W 1.6 mph2.6 kmh 30.03 in1016.9 mb 0.00 in0.0 mm 0.00 in0.0 mm 0.00 in0.0 mm
06:19 PM 77.6°F25.3°C 65.6°F18.7°C 52% 1.6 mph W2.6 kmh W 1.6 mph2.6 kmh 30.03 in1016.9 mb 0.00 in0.0 mm 0.00 in0.0 mm 0.00 in0.0 mm
06:22 PM 77.6°F25.3°C 65.5°F18.6°C 52% 2.8 mph WNW4.5 kmh WNW 2.9 mph4.7 kmh 30.03 in1016.9 mb 0.00 in0.0 mm 0.00 in0.0 mm 0.00 in0.0 mm
06:25 PM 76.7°F24.8°C 66.0°F18.9°C 53% 3.2 mph SW5.1 kmh SW 3.3 mph5.3 kmh 30.03 in1016.9 mb 0.00 in0.0 mm 0.00 in0.0 mm 0.00 in0.0 mm
06:28 PM 77.3°F25.2°C 65.2°F18.4°C 52% 2.0 mph NNW3.2 kmh NNW 2.0 mph3.2 kmh 30.03 in1016.9 mb 0.00 in0.0 mm 0.00 in0.0 mm 0.00 in0.0 mm
06:31 PM 76.7°F24.8°C 65.5°F18.6°C 52% 4.0 mph NNW6.4 kmh NNW 4.1 mph6.6 kmh 30.03 in1016.9 mb 0.00 in0.0 mm 0.00 in0.0 mm 0.00 in0.0 mm
06:34 PM 76.6°F24.8°C 65.7°F18.7°C 53% 4.4 mph NNW7.1 kmh NNW 4.5 mph7.2 kmh 30.03 in1016.9 mb 0.00 in0.0 mm 0.00 in0.0 mm 0.00 in0.0 mm
06:37 PM 75.5°F24.2°C 64.2°F17.9°C 52% 4.1 mph NW6.6 kmh NW 4.1 mph6.6 kmh 30.02 in1016.6 mb 0.00 in0.0 mm 0.00 in0.0 mm 0.00 in0.0 mm
06:40 PM 75.4°F24.1°C 65.1°F18.4°C 52% 2.4 mph NNW3.9 kmh NNW 2.4 mph3.9 kmh 30.02 in1016.6 mb 0.00 in0.0 mm 0.00 in0.0 mm 0.00 in0.0 mm
06:43 PM 75.1°F23.9°C 65.1°F18.4°C 53% 1.6 mph WNW2.6 kmh WNW 1.6 mph2.6 kmh 30.02 in1016.6 mb 0.00 in0.0 mm 0.00 in0.0 mm 0.00 in0.0 mm
06:46 PM 74.9°F23.8°C 64.8°F18.2°C 53% 2.4 mph NNW3.9 kmh NNW 2.4 mph3.9 kmh 30.02 in1016.6 mb 0.00 in0.0 mm 0.00 in0.0 mm 0.00 in0.0 mm
06:49 PM 74.6°F23.7°C 64.3°F17.9°C 53% 1.2 mph W1.9 kmh W 1.2 mph1.9 kmh 30.03 in1016.9 mb 0.00 in0.0 mm 0.00 in0.0 mm 0.00 in0.0 mm
06:52 PM 74.6°F23.7°C 64.8°F18.2°C 53% 1.6 mph NNW2.6 kmh NNW 1.6 mph2.6 kmh 30.03 in1016.9 mb 0.00 in0.0 mm 0.00 in0.0 mm 0.00 in0.0 mm
06:58 PM 73.5°F23.1°C 65.0°F18.3°C 55% 1.2 mph 1.9 kmh 1.2 mph1.9 kmh 30.03 in1016.9 mb 0.00 in0.0 mm 0.00 in0.0 mm 0.00 in0.0 mm
07:04 PM 73.1°F22.8°C 64.2°F17.9°C 54% 3.2 mph NNW5.1 kmh NNW 3.2 mph5.1 kmh 30.02 in1016.6 mb 0.00 in0.0 mm 0.00 in0.0 mm 0.00 in0.0 mm
07:07 PM 72.6°F22.6°C 64.6°F18.1°C 55% 2.0 mph NNW3.2 kmh NNW 2.0 mph3.2 kmh 30.02 in1016.6 mb 0.00 in0.0 mm 0.00 in0.0 mm 0.00 in0.0 mm
07:10 PM 73.0°F22.8°C 64.3°F17.9°C 55% 3.6 mph NW5.8 kmh NW 3.7 mph6.0 kmh 30.03 in1016.9 mb 0.00 in0.0 mm 0.00 in0.0 mm 0.00 in0.0 mm
07:13 PM 73.0°F22.8°C 65.2°F18.4°C 56% 2.8 mph NW4.5 kmh NW 2.8 mph4.5 kmh 30.02 in1016.6 mb 0.00 in0.0 mm 0.00 in0.0 mm 0.00 in0.0 mm
07:16 PM 73.1°F22.8°C 65.4°F18.6°C 56% 2.0 mph NW3.2 kmh NW 2.0 mph3.2 kmh 30.02 in1016.6 mb 0.00 in0.0 mm 0.00 in0.0 mm 0.00 in0.0 mm
07:22 PM 72.3°F22.4°C 64.7°F18.2°C 56% 0.4 mph NNW0.6 kmh NNW 0.4 mph0.6 kmh 30.02 in1016.6 mb 0.00 in0.0 mm 0.00 in0.0 mm 0.00 in0.0 mm
07:25 PM 72.1°F22.3°C 65.2°F18.4°C 57% 1.6 mph NNW2.6 kmh NNW 1.6 mph2.6 kmh 30.02 in1016.6 mb 0.00 in0.0 mm 0.00 in0.0 mm 0.00 in0.0 mm
07:28 PM 71.9°F22.2°C 65.3°F18.5°C 57% 1.2 mph NW1.9 kmh NW 1.2 mph1.9 kmh 30.02 in1016.6 mb 0.00 in0.0 mm 0.00 in0.0 mm 0.00 in0.0 mm
07:31 PM 72.2°F22.3°C 65.4°F18.6°C 57% Calm Calm -- 30.03 in1016.9 mb 0.00 in0.0 mm 0.00 in0.0 mm 0.00 in0.0 mm
07:34 PM 71.9°F22.2°C 64.5°F18.1°C 57% 0.4 mph NNW0.6 kmh NNW 0.4 mph0.6 kmh 30.03 in1016.9 mb 0.00 in0.0 mm 0.00 in0.0 mm 0.00 in0.0 mm
07:37 PM 71.7°F22.1°C 65.5°F18.6°C 58% 0.8 mph NNW1.3 kmh NNW 0.8 mph1.3 kmh 30.03 in1016.9 mb 0.00 in0.0 mm 0.00 in0.0 mm 0.00 in0.0 mm
07:40 PM 71.8°F22.1°C 65.0°F18.3°C 58% 0.4 mph 0.6 kmh 0.4 mph0.6 kmh 30.03 in1016.9 mb 0.00 in0.0 mm 0.00 in0.0 mm 0.00 in0.0 mm
07:46 PM 71.2°F21.8°C 64.9°F18.3°C 58% 1.6 mph 2.6 kmh 1.6 mph2.6 kmh 30.03 in1016.9 mb 0.00 in0.0 mm 0.00 in0.0 mm 0.00 in0.0 mm
07:49 PM 70.8°F21.6°C 65.1°F18.4°C 59% 3.6 mph 5.8 kmh 3.6 mph5.8 kmh 30.03 in1016.9 mb 0.00 in0.0 mm 0.00 in0.0 mm 0.00 in0.0 mm
07:52 PM 70.8°F21.6°C 65.1°F18.4°C 59% 2.4 mph NNW3.9 kmh NNW 2.5 mph4.0 kmh 30.03 in1016.9 mb 0.00 in0.0 mm 0.00 in0.0 mm 0.00 in0.0 mm
07:55 PM 70.7°F21.5°C 65.7°F18.7°C 59% 1.2 mph NNW1.9 kmh NNW 1.2 mph1.9 kmh 30.03 in1016.9 mb 0.00 in0.0 mm 0.00 in0.0 mm 0.00 in0.0 mm
07:58 PM 70.8°F21.6°C 65.7°F18.7°C 59% 1.2 mph NNW1.9 kmh NNW 1.2 mph1.9 kmh 30.03 in1016.9 mb 0.00 in0.0 mm 0.00 in0.0 mm 0.00 in0.0 mm
08:04 PM 70.8°F21.6°C 65.2°F18.4°C 59% 0.4 mph NNW0.6 kmh NNW 0.4 mph0.6 kmh 30.03 in1016.9 mb 0.00 in0.0 mm 0.00 in0.0 mm 0.00 in0.0 mm
08:07 PM 70.3°F21.3°C 65.8°F18.8°C 60% Calm Calm -- 30.03 in1016.9 mb 0.00 in0.0 mm 0.00 in0.0 mm 0.00 in0.0 mm
08:10 PM 70.3°F21.3°C 65.2°F18.4°C 60% 0.8 mph NNW1.3 kmh NNW 0.8 mph1.3 kmh 30.03 in1016.9 mb 0.00 in0.0 mm 0.00 in0.0 mm 0.00 in0.0 mm
08:13 PM 70.1°F21.2°C 65.0°F18.3°C 60% Calm Calm -- 30.03 in1016.9 mb 0.00 in0.0 mm 0.00 in0.0 mm 0.00 in0.0 mm
08:19 PM 69.6°F20.9°C 65.1°F18.4°C 60% 1.6 mph NNW2.6 kmh NNW 1.6 mph2.6 kmh 30.03 in1016.9 mb 0.00 in0.0 mm 0.00 in0.0 mm 0.00 in0.0 mm
08:22 PM 69.2°F20.7°C 65.3°F18.5°C 60% Calm Calm -- 30.04 in1017.3 mb 0.00 in0.0 mm 0.00 in0.0 mm 0.00 in0.0 mm
08:25 PM 69.0°F20.6°C 64.4°F18.0°C 60% 2.0 mph NW3.2 kmh NW 2.0 mph3.2 kmh 30.04 in1017.3 mb 0.00 in0.0 mm 0.00 in0.0 mm 0.00 in0.0 mm
08:28 PM 68.8°F20.4°C 64.8°F18.2°C 61% Calm Calm -- 30.04 in1017.3 mb 0.00 in0.0 mm 0.00 in0.0 mm 0.00 in0.0 mm
08:31 PM 68.5°F20.3°C 64.6°F18.1°C 60% Calm Calm -- 30.05 in1017.6 mb 0.00 in0.0 mm 0.00 in0.0 mm 0.00 in0.0 mm
08:34 PM 68.1°F20.1°C 64.8°F18.2°C 61% Calm Calm -- 30.05 in1017.6 mb 0.00 in0.0 mm 0.00 in0.0 mm 0.00 in0.0 mm
08:37 PM 67.8°F19.9°C 64.6°F18.1°C 61% Calm Calm -- 30.05 in1017.6 mb 0.00 in0.0 mm 0.00 in0.0 mm 0.00 in0.0 mm
08:40 PM 67.4°F19.7°C 64.9°F18.3°C 62% Calm Calm -- 30.05 in1017.6 mb 0.00 in0.0 mm 0.00 in0.0 mm 0.00 in0.0 mm
08:43 PM 67.2°F19.6°C 64.4°F18.0°C 61% Calm Calm -- 30.05 in1017.6 mb 0.00 in0.0 mm 0.00 in0.0 mm 0.00 in0.0 mm
08:46 PM 67.0°F19.4°C 64.0°F17.8°C 62% Calm Calm -- 30.05 in1017.6 mb 0.00 in0.0 mm 0.00 in0.0 mm 0.00 in0.0 mm
08:49 PM 67.0°F19.4°C 64.2°F17.9°C 62% Calm Calm -- 30.05 in1017.6 mb 0.00 in0.0 mm 0.00 in0.0 mm 0.00 in0.0 mm
08:52 PM 66.1°F18.9°C 64.5°F18.1°C 62% Calm Calm -- 30.05 in1017.6 mb 0.00 in0.0 mm 0.00 in0.0 mm 0.00 in0.0 mm
08:55 PM 65.4°F18.6°C 64.5°F18.1°C 62% 0.4 mph 0.6 kmh 0.4 mph0.6 kmh 30.05 in1017.6 mb 0.00 in0.0 mm 0.00 in0.0 mm 0.00 in0.0 mm
08:58 PM 65.5°F18.6°C 64.1°F17.8°C 62% Calm Calm -- 30.05 in1017.6 mb 0.00 in0.0 mm 0.00 in0.0 mm 0.00 in0.0 mm
09:01 PM 65.3°F18.5°C 63.6°F17.6°C 63% 0.4 mph NW0.6 kmh NW 0.4 mph0.6 kmh 30.05 in1017.6 mb 0.00 in0.0 mm 0.00 in0.0 mm 0.00 in0.0 mm
09:07 PM 65.3°F18.5°C 63.9°F17.7°C 63% Calm Calm -- 30.05 in1017.6 mb 0.00 in0.0 mm 0.00 in0.0 mm 0.00 in0.0 mm
09:10 PM 65.1°F18.4°C 63.3°F17.4°C 63% Calm Calm -- 30.05 in1017.6 mb 0.00 in0.0 mm 0.00 in0.0 mm 0.00 in0.0 mm
09:13 PM 64.6°F18.1°C 63.5°F17.5°C 64% Calm Calm -- 30.05 in1017.6 mb 0.00 in0.0 mm 0.00 in0.0 mm 0.00 in0.0 mm
09:16 PM 64.1°F17.8°C 63.7°F17.6°C 64% Calm Calm -- 30.05 in1017.6 mb 0.00 in0.0 mm 0.00 in0.0 mm 0.00 in0.0 mm
09:19 PM 63.8°F17.7°C 62.9°F17.2°C 64% Calm Calm -- 30.05 in1017.6 mb 0.00 in0.0 mm 0.00 in0.0 mm 0.00 in0.0 mm
09:22 PM 63.5°F17.5°C 63.1°F17.3°C 64% Calm Calm -- 30.05 in1017.6 mb 0.00 in0.0 mm 0.00 in0.0 mm 0.00 in0.0 mm
09:34 PM 62.7°F17.1°C 62.6°F17.0°C 65% Calm Calm -- 30.05 in1017.6 mb 0.00 in0.0 mm 0.00 in0.0 mm 0.00 in0.0 mm
09:37 PM 62.7°F17.1°C 62.5°F16.9°C 65% Calm Calm -- 30.05 in1017.6 mb 0.00 in0.0 mm 0.00 in0.0 mm 0.00 in0.0 mm
09:40 PM 62.7°F17.1°C 62.7°F17.1°C 65% Calm Calm -- 30.05 in1017.6 mb 0.00 in0.0 mm 0.00 in0.0 mm 0.00 in0.0 mm
09:43 PM 62.3°F16.8°C 62.6°F17.0°C 65% Calm Calm -- 30.05 in1017.6 mb 0.00 in0.0 mm 0.00 in0.0 mm 0.00 in0.0 mm
09:46 PM 62.3°F16.8°C 62.6°F17.0°C 66% Calm Calm -- 30.05 in1017.6 mb 0.00 in0.0 mm 0.00 in0.0 mm 0.00 in0.0 mm
09:49 PM 62.0°F16.7°C 62.6°F17.0°C 66% Calm Calm -- 30.05 in1017.6 mb 0.00 in0.0 mm 0.00 in0.0 mm 0.00 in0.0 mm
09:52 PM 61.9°F16.6°C 62.0°F16.7°C 66% 0.8 mph 1.3 kmh 0.8 mph1.3 kmh 30.05 in1017.6 mb 0.00 in0.0 mm 0.00 in0.0 mm 0.00 in0.0 mm
09:55 PM 61.5°F16.4°C 62.3°F16.8°C 67% 1.2 mph NE1.9 kmh NE 1.2 mph1.9 kmh 30.05 in1017.6 mb 0.00 in0.0 mm 0.00 in0.0 mm 0.00 in0.0 mm
09:58 PM 61.0°F16.1°C 62.0°F16.7°C 67% 1.6 mph NE2.6 kmh NE 1.6 mph2.6 kmh 30.05 in1017.6 mb 0.00 in0.0 mm 0.00 in0.0 mm 0.00 in0.0 mm
10:01 PM 61.5°F16.4°C 61.8°F16.6°C 68% 1.2 mph NE1.9 kmh NE 1.2 mph1.9 kmh 30.05 in1017.6 mb 0.00 in0.0 mm 0.00 in0.0 mm 0.00 in0.0 mm
10:04 PM 61.4°F16.3°C 62.0°F16.7°C 67% Calm Calm -- 30.06 in1017.9 mb 0.00 in0.0 mm 0.00 in0.0 mm 0.00 in0.0 mm
10:07 PM 61.8°F16.6°C 61.9°F16.6°C 68% Calm Calm -- 30.06 in1017.9 mb 0.00 in0.0 mm 0.00 in0.0 mm 0.00 in0.0 mm
10:10 PM 61.7°F16.5°C 62.2°F16.8°C 68% Calm Calm -- 30.06 in1017.9 mb 0.00 in0.0 mm 0.00 in0.0 mm 0.00 in0.0 mm
10:13 PM 61.6°F16.4°C 62.1°F16.7°C 68% Calm Calm -- 30.06 in1017.9 mb 0.00 in0.0 mm 0.00 in0.0 mm 0.00 in0.0 mm
10:16 PM 61.4°F16.3°C 61.9°F16.6°C 68% Calm Calm -- 30.06 in1017.9 mb 0.00 in0.0 mm 0.00 in0.0 mm 0.00 in0.0 mm
10:19 PM 61.4°F16.3°C 61.9°F16.6°C 68% Calm Calm -- 30.06 in1017.9 mb 0.00 in0.0 mm 0.00 in0.0 mm 0.00 in0.0 mm
10:22 PM 61.1°F16.2°C 61.8°F16.6°C 68% Calm Calm -- 30.06 in1017.9 mb 0.00 in0.0 mm 0.00 in0.0 mm 0.00 in0.0 mm
10:25 PM 61.0°F16.1°C 61.7°F16.5°C 68% Calm Calm -- 30.06 in1017.9 mb 0.00 in0.0 mm 0.00 in0.0 mm 0.00 in0.0 mm
10:28 PM 59.8°F15.4°C 61.3°F16.3°C 68% Calm Calm -- 30.06 in1017.9 mb 0.00 in0.0 mm 0.00 in0.0 mm 0.00 in0.0 mm
10:31 PM 60.1°F15.6°C 61.8°F16.6°C 69% Calm Calm -- 30.06 in1017.9 mb 0.00 in0.0 mm 0.00 in0.0 mm 0.00 in0.0 mm
10:34 PM 59.5°F15.3°C 61.1°F16.2°C 69% Calm Calm -- 30.06 in1017.9 mb 0.00 in0.0 mm 0.00 in0.0 mm 0.00 in0.0 mm
10:37 PM 59.6°F15.3°C 60.8°F16.0°C 69% Calm Calm -- 30.07 in1018.3 mb 0.00 in0.0 mm 0.00 in0.0 mm 0.00 in0.0 mm
10:40 PM 59.3°F15.2°C 60.9°F16.1°C 69% Calm Calm -- 30.07 in1018.3 mb 0.00 in0.0 mm 0.00 in0.0 mm 0.00 in0.0 mm
10:43 PM 59.2°F15.1°C 60.9°F16.1°C 69% Calm Calm -- 30.07 in1018.3 mb 0.00 in0.0 mm 0.00 in0.0 mm 0.00 in0.0 mm
10:49 PM 58.7°F14.8°C 60.3°F15.7°C 69% Calm Calm -- 30.06 in1017.9 mb 0.00 in0.0 mm 0.00 in0.0 mm 0.00 in0.0 mm
10:52 PM 58.9°F14.9°C 60.3°F15.7°C 69% Calm Calm -- 30.07 in1018.3 mb 0.00 in0.0 mm 0.00 in0.0 mm 0.00 in0.0 mm
10:55 PM 58.3°F14.6°C 60.2°F15.7°C 70% Calm Calm -- 30.07 in1018.3 mb 0.00 in0.0 mm 0.00 in0.0 mm 0.00 in0.0 mm
10:58 PM 57.9°F14.4°C 59.8°F15.4°C 69% Calm Calm -- 30.07 in1018.3 mb 0.00 in0.0 mm 0.00 in0.0 mm 0.00 in0.0 mm
11:01 PM 57.5°F14.2°C 59.7°F15.4°C 70% Calm Calm -- 30.06 in1017.9 mb 0.00 in0.0 mm 0.00 in0.0 mm 0.00 in0.0 mm
11:04 PM 57.8°F14.3°C 60.1°F15.6°C 71% Calm Calm -- 30.07 in1018.3 mb 0.00 in0.0 mm 0.00 in0.0 mm 0.00 in0.0 mm
11:07 PM 57.7°F14.3°C 59.7°F15.4°C 70% Calm Calm -- 30.07 in1018.3 mb 0.00 in0.0 mm 0.00 in0.0 mm 0.00 in0.0 mm
11:10 PM 57.4°F14.1°C 59.5°F15.3°C 70% Calm Calm -- 30.07 in1018.3 mb 0.00 in0.0 mm 0.00 in0.0 mm 0.00 in0.0 mm
11:13 PM 57.8°F14.3°C 60.4°F15.8°C 72% Calm Calm -- 30.07 in1018.3 mb 0.00 in0.0 mm 0.00 in0.0 mm 0.00 in0.0 mm
11:16 PM 57.1°F13.9°C 59.6°F15.3°C 71% Calm Calm -- 30.06 in1017.9 mb 0.00 in0.0 mm 0.00 in0.0 mm 0.00 in0.0 mm
11:19 PM 57.2°F14.0°C 59.3°F15.2°C 70% Calm Calm -- 30.06 in1017.9 mb 0.00 in0.0 mm 0.00 in0.0 mm 0.00 in0.0 mm
11:22 PM 57.0°F13.9°C 59.4°F15.2°C 71% Calm Calm -- 30.07 in1018.3 mb 0.00 in0.0 mm 0.00 in0.0 mm 0.00 in0.0 mm
11:25 PM 56.9°F13.8°C 59.1°F15.1°C 71% Calm Calm -- 30.07 in1018.3 mb 0.00 in0.0 mm 0.00 in0.0 mm 0.00 in0.0 mm
11:28 PM 57.0°F13.9°C 59.4°F15.2°C 72% Calm Calm -- 30.07 in1018.3 mb 0.00 in0.0 mm 0.00 in0.0 mm 0.00 in0.0 mm
11:31 PM 57.8°F14.3°C 59.5°F15.3°C 73% Calm Calm -- 30.07 in1018.3 mb 0.00 in0.0 mm 0.00 in0.0 mm 0.00 in0.0 mm
11:34 PM 57.5°F14.2°C 59.4°F15.2°C 72% Calm Calm -- 30.07 in1018.3 mb 0.00 in0.0 mm 0.00 in0.0 mm 0.00 in0.0 mm
11:37 PM 57.4°F14.1°C 59.5°F15.3°C 72% Calm Calm -- 30.07 in1018.3 mb 0.00 in0.0 mm 0.00 in0.0 mm 0.00 in0.0 mm
11:40 PM 58.0°F14.4°C 59.7°F15.4°C 73% 0.4 mph 0.6 kmh 0.4 mph0.6 kmh 30.07 in1018.3 mb 0.00 in0.0 mm 0.00 in0.0 mm 0.00 in0.0 mm
11:43 PM 58.9°F14.9°C 59.7°F15.4°C 73% Calm Calm -- 30.07 in1018.3 mb 0.00 in0.0 mm 0.00 in0.0 mm 0.00 in0.0 mm
11:46 PM 57.2°F14.0°C 59.7°F15.4°C 73% Calm Calm -- 30.07 in1018.3 mb 0.00 in0.0 mm 0.00 in0.0 mm 0.00 in0.0 mm
11:55 PM 56.5°F13.6°C 59.3°F15.2°C 73% Calm Calm -- 30.07 in1018.3 mb 0.00 in0.0 mm 0.00 in0.0 mm 0.00 in0.0 mm
11:58 PM 57.0°F13.9°C 59.7°F15.4°C 74% Calm Calm -- 30.07 in1018.3 mb 0.00 in0.0 mm 0.00 in0.0 mm 0.00 in0.0 mm